<?xml version="1.0" encoding="UTF-8" standalone="no" ?>
<gpx xmlns="http://www.topografix.com/GPX/1/1" xmlns:xsi="http://www.w3.org/2001/XMLSchema-instance" xsi:schemaLocation="http://www.topografix.com/GPX/1/1 http://www.topografix.com/GPX/1/1/gpx.xsd" version="1.1" creator="VisuGPX - https://www.visugpx.com">
  <metadata>
    <name>Marchairuz</name>
    <desc><![CDATA[Rando vtt sur la Suisse]]></desc>
  </metadata>
  <trk>
    <name><![CDATA[ACTIVE LOG]]></name>
    <trkseg>
      <trkpt lat="46.49106" lon="6.06523">
        <ele>1101.80835</ele>
        <time>2014-06-05T11:56:36Z</time>
      </trkpt>
      <trkpt lat="46.49095" lon="6.0654">
        <ele>1101.80835</ele>
        <time>2014-06-05T11:56:42Z</time>
      </trkpt>
      <trkpt lat="46.49082" lon="6.0655">
        <ele>1101.80835</ele>
        <time>2014-06-05T11:56:48Z</time>
      </trkpt>
      <trkpt lat="46.49078" lon="6.06562">
        <ele>1100.846924</ele>
        <time>2014-06-05T11:56:52Z</time>
      </trkpt>
      <trkpt lat="46.49077" lon="6.06625">
        <ele>1095.55957</ele>
        <time>2014-06-05T11:57:04Z</time>
      </trkpt>
      <trkpt lat="46.4908" lon="6.06676">
        <ele>1094.117676</ele>
        <time>2014-06-05T11:57:10Z</time>
      </trkpt>
      <trkpt lat="46.49056" lon="6.06716">
        <ele>1092.195068</ele>
        <time>2014-06-05T11:57:17Z</time>
      </trkpt>
      <trkpt lat="46.49044" lon="6.06714">
        <ele>1092.195068</ele>
        <time>2014-06-05T11:57:19Z</time>
      </trkpt>
      <trkpt lat="46.49021" lon="6.06705">
        <ele>1092.195068</ele>
        <time>2014-06-05T11:57:23Z</time>
      </trkpt>
      <trkpt lat="46.48992" lon="6.0673">
        <ele>1092.675781</ele>
        <time>2014-06-05T11:57:30Z</time>
      </trkpt>
      <trkpt lat="46.48991" lon="6.06744">
        <ele>1092.675781</ele>
        <time>2014-06-05T11:57:33Z</time>
      </trkpt>
      <trkpt lat="46.49007" lon="6.06773">
        <ele>1090.75293</ele>
        <time>2014-06-05T11:57:42Z</time>
      </trkpt>
      <trkpt lat="46.49023" lon="6.06781">
        <ele>1089.791748</ele>
        <time>2014-06-05T11:57:46Z</time>
      </trkpt>
      <trkpt lat="46.49031" lon="6.06785">
        <ele>1090.272461</ele>
        <time>2014-06-05T11:57:56Z</time>
      </trkpt>
      <trkpt lat="46.49032" lon="6.06785">
        <ele>1090.75293</ele>
        <time>2014-06-05T11:58:38Z</time>
      </trkpt>
      <trkpt lat="46.4907" lon="6.06807">
        <ele>1087.388428</ele>
        <time>2014-06-05T11:58:51Z</time>
      </trkpt>
      <trkpt lat="46.49132" lon="6.06837">
        <ele>1087.388428</ele>
        <time>2014-06-05T11:59:07Z</time>
      </trkpt>
      <trkpt lat="46.49172" lon="6.0683">
        <ele>1089.311035</ele>
        <time>2014-06-05T11:59:15Z</time>
      </trkpt>
      <trkpt lat="46.4919" lon="6.06817">
        <ele>1088.830566</ele>
        <time>2014-06-05T11:59:19Z</time>
      </trkpt>
      <trkpt lat="46.49242" lon="6.06734">
        <ele>1084.504639</ele>
        <time>2014-06-05T11:59:31Z</time>
      </trkpt>
      <trkpt lat="46.49264" lon="6.06707">
        <ele>1083.062256</ele>
        <time>2014-06-05T11:59:35Z</time>
      </trkpt>
      <trkpt lat="46.49317" lon="6.06701">
        <ele>1080.65918</ele>
        <time>2014-06-05T11:59:43Z</time>
      </trkpt>
      <trkpt lat="46.49326" lon="6.06718">
        <ele>1079.217041</ele>
        <time>2014-06-05T11:59:45Z</time>
      </trkpt>
      <trkpt lat="46.49379" lon="6.06842">
        <ele>1072.007324</ele>
        <time>2014-06-05T11:59:59Z</time>
      </trkpt>
      <trkpt lat="46.49435" lon="6.06894">
        <ele>1068.642822</ele>
        <time>2014-06-05T12:00:07Z</time>
      </trkpt>
      <trkpt lat="46.4946" lon="6.06929">
        <ele>1067.200684</ele>
        <time>2014-06-05T12:00:11Z</time>
      </trkpt>
      <trkpt lat="46.49498" lon="6.07039">
        <ele>1069.123535</ele>
        <time>2014-06-05T12:00:23Z</time>
      </trkpt>
      <trkpt lat="46.49546" lon="6.07171">
        <ele>1062.394043</ele>
        <time>2014-06-05T12:00:36Z</time>
      </trkpt>
      <trkpt lat="46.49598" lon="6.07277">
        <ele>1066.719971</ele>
        <time>2014-06-05T12:00:48Z</time>
      </trkpt>
      <trkpt lat="46.4964" lon="6.07377">
        <ele>1061.432861</ele>
        <time>2014-06-05T12:00:59Z</time>
      </trkpt>
      <trkpt lat="46.4969" lon="6.07418">
        <ele>1059.990723</ele>
        <time>2014-06-05T12:01:07Z</time>
      </trkpt>
      <trkpt lat="46.49706" lon="6.07413">
        <ele>1059.990723</ele>
        <time>2014-06-05T12:01:09Z</time>
      </trkpt>
      <trkpt lat="46.49765" lon="6.07389">
        <ele>1063.835938</ele>
        <time>2014-06-05T12:01:18Z</time>
      </trkpt>
      <trkpt lat="46.49781" lon="6.07387">
        <ele>1064.797363</ele>
        <time>2014-06-05T12:01:21Z</time>
      </trkpt>
      <trkpt lat="46.49815" lon="6.07402">
        <ele>1065.278076</ele>
        <time>2014-06-05T12:01:29Z</time>
      </trkpt>
      <trkpt lat="46.49827" lon="6.07418">
        <ele>1063.835938</ele>
        <time>2014-06-05T12:01:33Z</time>
      </trkpt>
      <trkpt lat="46.49885" lon="6.07502">
        <ele>1060.952148</ele>
        <time>2014-06-05T12:01:51Z</time>
      </trkpt>
      <trkpt lat="46.4994" lon="6.07587">
        <ele>1055.184326</ele>
        <time>2014-06-05T12:02:08Z</time>
      </trkpt>
      <trkpt lat="46.49984" lon="6.07664">
        <ele>1052.300293</ele>
        <time>2014-06-05T12:02:24Z</time>
      </trkpt>
      <trkpt lat="46.50037" lon="6.07752">
        <ele>1051.81958</ele>
        <time>2014-06-05T12:02:43Z</time>
      </trkpt>
      <trkpt lat="46.50081" lon="6.07829">
        <ele>1057.106934</ele>
        <time>2014-06-05T12:03:00Z</time>
      </trkpt>
      <trkpt lat="46.50121" lon="6.07895">
        <ele>1055.184326</ele>
        <time>2014-06-05T12:03:15Z</time>
      </trkpt>
      <trkpt lat="46.50123" lon="6.079">
        <ele>1055.184326</ele>
        <time>2014-06-05T12:03:16Z</time>
      </trkpt>
      <trkpt lat="46.50165" lon="6.07971">
        <ele>1053.742432</ele>
        <time>2014-06-05T12:03:31Z</time>
      </trkpt>
      <trkpt lat="46.50214" lon="6.08054">
        <ele>1052.781006</ele>
        <time>2014-06-05T12:03:48Z</time>
      </trkpt>
      <trkpt lat="46.50265" lon="6.08139">
        <ele>1054.223145</ele>
        <time>2014-06-05T12:04:07Z</time>
      </trkpt>
      <trkpt lat="46.50305" lon="6.082">
        <ele>1055.665039</ele>
        <time>2014-06-05T12:04:23Z</time>
      </trkpt>
      <trkpt lat="46.50343" lon="6.08266">
        <ele>1056.145508</ele>
        <time>2014-06-05T12:04:39Z</time>
      </trkpt>
      <trkpt lat="46.50375" lon="6.08324">
        <ele>1059.029541</ele>
        <time>2014-06-05T12:04:53Z</time>
      </trkpt>
      <trkpt lat="46.50417" lon="6.08395">
        <ele>1060.471436</ele>
        <time>2014-06-05T12:05:11Z</time>
      </trkpt>
      <trkpt lat="46.50456" lon="6.08463">
        <ele>1063.835938</ele>
        <time>2014-06-05T12:05:27Z</time>
      </trkpt>
      <trkpt lat="46.50467" lon="6.0848">
        <ele>1063.835938</ele>
        <time>2014-06-05T12:05:31Z</time>
      </trkpt>
      <trkpt lat="46.50498" lon="6.08536">
        <ele>1063.835938</ele>
        <time>2014-06-05T12:05:43Z</time>
      </trkpt>
      <trkpt lat="46.50524" lon="6.08575">
        <ele>1068.162109</ele>
        <time>2014-06-05T12:05:53Z</time>
      </trkpt>
      <trkpt lat="46.50541" lon="6.08595">
        <ele>1074.891357</ele>
        <time>2014-06-05T12:06:02Z</time>
      </trkpt>
      <trkpt lat="46.50547" lon="6.08608">
        <ele>1079.217041</ele>
        <time>2014-06-05T12:06:06Z</time>
      </trkpt>
      <trkpt lat="46.50563" lon="6.08632">
        <ele>1079.697754</ele>
        <time>2014-06-05T12:06:12Z</time>
      </trkpt>
      <trkpt lat="46.50574" lon="6.0865">
        <ele>1082.581787</ele>
        <time>2014-06-05T12:06:18Z</time>
      </trkpt>
      <trkpt lat="46.50593" lon="6.08668">
        <ele>1085.46582</ele>
        <time>2014-06-05T12:06:26Z</time>
      </trkpt>
      <trkpt lat="46.50624" lon="6.08705">
        <ele>1084.023926</ele>
        <time>2014-06-05T12:06:36Z</time>
      </trkpt>
      <trkpt lat="46.5064" lon="6.08726">
        <ele>1082.101074</ele>
        <time>2014-06-05T12:06:41Z</time>
      </trkpt>
      <trkpt lat="46.50671" lon="6.08761">
        <ele>1081.139893</ele>
        <time>2014-06-05T12:06:51Z</time>
      </trkpt>
      <trkpt lat="46.50697" lon="6.08784">
        <ele>1080.65918</ele>
        <time>2014-06-05T12:06:59Z</time>
      </trkpt>
      <trkpt lat="46.50737" lon="6.08824">
        <ele>1074.410645</ele>
        <time>2014-06-05T12:07:10Z</time>
      </trkpt>
      <trkpt lat="46.50745" lon="6.08831">
        <ele>1073.929932</ele>
        <time>2014-06-05T12:07:12Z</time>
      </trkpt>
      <trkpt lat="46.50763" lon="6.08847">
        <ele>1072.488037</ele>
        <time>2014-06-05T12:07:17Z</time>
      </trkpt>
      <trkpt lat="46.50781" lon="6.08862">
        <ele>1071.526611</ele>
        <time>2014-06-05T12:07:22Z</time>
      </trkpt>
      <trkpt lat="46.50789" lon="6.08869">
        <ele>1071.046143</ele>
        <time>2014-06-05T12:07:24Z</time>
      </trkpt>
      <trkpt lat="46.50825" lon="6.08909">
        <ele>1071.046143</ele>
        <time>2014-06-05T12:07:36Z</time>
      </trkpt>
      <trkpt lat="46.50851" lon="6.08955">
        <ele>1080.65918</ele>
        <time>2014-06-05T12:07:48Z</time>
      </trkpt>
      <trkpt lat="46.50884" lon="6.09008">
        <ele>1082.581787</ele>
        <time>2014-06-05T12:08:02Z</time>
      </trkpt>
      <trkpt lat="46.50911" lon="6.09045">
        <ele>1080.65918</ele>
        <time>2014-06-05T12:08:17Z</time>
      </trkpt>
      <trkpt lat="46.50947" lon="6.09091">
        <ele>1079.697754</ele>
        <time>2014-06-05T12:08:35Z</time>
      </trkpt>
      <trkpt lat="46.50971" lon="6.0913">
        <ele>1079.217041</ele>
        <time>2014-06-05T12:08:48Z</time>
      </trkpt>
      <trkpt lat="46.50973" lon="6.09138">
        <ele>1078.255859</ele>
        <time>2014-06-05T12:08:50Z</time>
      </trkpt>
      <trkpt lat="46.50999" lon="6.09149">
        <ele>1078.255859</ele>
        <time>2014-06-05T12:08:56Z</time>
      </trkpt>
      <trkpt lat="46.51004" lon="6.09162">
        <ele>1078.255859</ele>
        <time>2014-06-05T12:08:58Z</time>
      </trkpt>
      <trkpt lat="46.51065" lon="6.09231">
        <ele>1072.96875</ele>
        <time>2014-06-05T12:09:08Z</time>
      </trkpt>
      <trkpt lat="46.51081" lon="6.09248">
        <ele>1071.526611</ele>
        <time>2014-06-05T12:09:11Z</time>
      </trkpt>
      <trkpt lat="46.51101" lon="6.09279">
        <ele>1069.123535</ele>
        <time>2014-06-05T12:09:15Z</time>
      </trkpt>
      <trkpt lat="46.5113" lon="6.09353">
        <ele>1068.162109</ele>
        <time>2014-06-05T12:09:23Z</time>
      </trkpt>
      <trkpt lat="46.51181" lon="6.09452">
        <ele>1072.96875</ele>
        <time>2014-06-05T12:09:37Z</time>
      </trkpt>
      <trkpt lat="46.51233" lon="6.09537">
        <ele>1074.891357</ele>
        <time>2014-06-05T12:09:53Z</time>
      </trkpt>
      <trkpt lat="46.5129" lon="6.09637">
        <ele>1073.449463</ele>
        <time>2014-06-05T12:10:10Z</time>
      </trkpt>
      <trkpt lat="46.51312" lon="6.09684">
        <ele>1072.007324</ele>
        <time>2014-06-05T12:10:18Z</time>
      </trkpt>
      <trkpt lat="46.51357" lon="6.09764">
        <ele>1068.162109</ele>
        <time>2014-06-05T12:10:31Z</time>
      </trkpt>
      <trkpt lat="46.51382" lon="6.09815">
        <ele>1063.355469</ele>
        <time>2014-06-05T12:10:38Z</time>
      </trkpt>
      <trkpt lat="46.51455" lon="6.09907">
        <ele>1062.874756</ele>
        <time>2014-06-05T12:10:52Z</time>
      </trkpt>
      <trkpt lat="46.51505" lon="6.10009">
        <ele>1067.200684</ele>
        <time>2014-06-05T12:11:04Z</time>
      </trkpt>
      <trkpt lat="46.51569" lon="6.10102">
        <ele>1068.642822</ele>
        <time>2014-06-05T12:11:18Z</time>
      </trkpt>
      <trkpt lat="46.5162" lon="6.10157">
        <ele>1072.96875</ele>
        <time>2014-06-05T12:11:33Z</time>
      </trkpt>
      <trkpt lat="46.51634" lon="6.10171">
        <ele>1072.96875</ele>
        <time>2014-06-05T12:11:37Z</time>
      </trkpt>
      <trkpt lat="46.51684" lon="6.10233">
        <ele>1074.410645</ele>
        <time>2014-06-05T12:11:53Z</time>
      </trkpt>
      <trkpt lat="46.51716" lon="6.10275">
        <ele>1074.410645</ele>
        <time>2014-06-05T12:12:04Z</time>
      </trkpt>
      <trkpt lat="46.51771" lon="6.1035">
        <ele>1071.526611</ele>
        <time>2014-06-05T12:12:19Z</time>
      </trkpt>
      <trkpt lat="46.51823" lon="6.10436">
        <ele>1073.449463</ele>
        <time>2014-06-05T12:12:36Z</time>
      </trkpt>
      <trkpt lat="46.51876" lon="6.1051">
        <ele>1071.526611</ele>
        <time>2014-06-05T12:12:51Z</time>
      </trkpt>
      <trkpt lat="46.51937" lon="6.10593">
        <ele>1071.526611</ele>
        <time>2014-06-05T12:13:03Z</time>
      </trkpt>
      <trkpt lat="46.51974" lon="6.10639">
        <ele>1073.449463</ele>
        <time>2014-06-05T12:13:14Z</time>
      </trkpt>
      <trkpt lat="46.52007" lon="6.10697">
        <ele>1075.371826</ele>
        <time>2014-06-05T12:13:29Z</time>
      </trkpt>
      <trkpt lat="46.52029" lon="6.10746">
        <ele>1075.371826</ele>
        <time>2014-06-05T12:13:43Z</time>
      </trkpt>
      <trkpt lat="46.52073" lon="6.10816">
        <ele>1076.333252</ele>
        <time>2014-06-05T12:14:00Z</time>
      </trkpt>
      <trkpt lat="46.52135" lon="6.10885">
        <ele>1082.101074</ele>
        <time>2014-06-05T12:14:20Z</time>
      </trkpt>
      <trkpt lat="46.52173" lon="6.10928">
        <ele>1081.620361</ele>
        <time>2014-06-05T12:14:32Z</time>
      </trkpt>
      <trkpt lat="46.52228" lon="6.10985">
        <ele>1082.581787</ele>
        <time>2014-06-05T12:14:47Z</time>
      </trkpt>
      <trkpt lat="46.52232" lon="6.10988">
        <ele>1083.062256</ele>
        <time>2014-06-05T12:14:48Z</time>
      </trkpt>
      <trkpt lat="46.52272" lon="6.11047">
        <ele>1083.062256</ele>
        <time>2014-06-05T12:15:03Z</time>
      </trkpt>
      <trkpt lat="46.52293" lon="6.11102">
        <ele>1079.217041</ele>
        <time>2014-06-05T12:15:15Z</time>
      </trkpt>
      <trkpt lat="46.52336" lon="6.11181">
        <ele>1079.217041</ele>
        <time>2014-06-05T12:15:29Z</time>
      </trkpt>
      <trkpt lat="46.52339" lon="6.11187">
        <ele>1078.255859</ele>
        <time>2014-06-05T12:15:30Z</time>
      </trkpt>
      <trkpt lat="46.52388" lon="6.11271">
        <ele>1074.891357</ele>
        <time>2014-06-05T12:15:42Z</time>
      </trkpt>
      <trkpt lat="46.5246" lon="6.11365">
        <ele>1073.929932</ele>
        <time>2014-06-05T12:15:56Z</time>
      </trkpt>
      <trkpt lat="46.5251" lon="6.11433">
        <ele>1077.294678</ele>
        <time>2014-06-05T12:16:09Z</time>
      </trkpt>
      <trkpt lat="46.52547" lon="6.11485">
        <ele>1079.217041</ele>
        <time>2014-06-05T12:16:20Z</time>
      </trkpt>
      <trkpt lat="46.52585" lon="6.11553">
        <ele>1078.736572</ele>
        <time>2014-06-05T12:16:37Z</time>
      </trkpt>
      <trkpt lat="46.52621" lon="6.11621">
        <ele>1076.333252</ele>
        <time>2014-06-05T12:16:49Z</time>
      </trkpt>
      <trkpt lat="46.52681" lon="6.11697">
        <ele>1073.449463</ele>
        <time>2014-06-05T12:17:00Z</time>
      </trkpt>
      <trkpt lat="46.52689" lon="6.11703">
        <ele>1072.96875</ele>
        <time>2014-06-05T12:17:01Z</time>
      </trkpt>
      <trkpt lat="46.5271" lon="6.11723">
        <ele>1072.007324</ele>
        <time>2014-06-05T12:17:04Z</time>
      </trkpt>
      <trkpt lat="46.52721" lon="6.1174">
        <ele>1072.007324</ele>
        <time>2014-06-05T12:17:06Z</time>
      </trkpt>
      <trkpt lat="46.52752" lon="6.11838">
        <ele>1072.007324</ele>
        <time>2014-06-05T12:17:16Z</time>
      </trkpt>
      <trkpt lat="46.52759" lon="6.11864">
        <ele>1070.56543</ele>
        <time>2014-06-05T12:17:19Z</time>
      </trkpt>
      <trkpt lat="46.52784" lon="6.11906">
        <ele>1070.56543</ele>
        <time>2014-06-05T12:17:25Z</time>
      </trkpt>
      <trkpt lat="46.52857" lon="6.11989">
        <ele>1071.046143</ele>
        <time>2014-06-05T12:17:38Z</time>
      </trkpt>
      <trkpt lat="46.52865" lon="6.12003">
        <ele>1071.046143</ele>
        <time>2014-06-05T12:17:41Z</time>
      </trkpt>
      <trkpt lat="46.52883" lon="6.12026">
        <ele>1072.007324</ele>
        <time>2014-06-05T12:17:46Z</time>
      </trkpt>
      <trkpt lat="46.52946" lon="6.12128">
        <ele>1071.526611</ele>
        <time>2014-06-05T12:18:07Z</time>
      </trkpt>
      <trkpt lat="46.52984" lon="6.12205">
        <ele>1067.200684</ele>
        <time>2014-06-05T12:18:19Z</time>
      </trkpt>
      <trkpt lat="46.53033" lon="6.12304">
        <ele>1068.642822</ele>
        <time>2014-06-05T12:18:36Z</time>
      </trkpt>
      <trkpt lat="46.53057" lon="6.12358">
        <ele>1066.239258</ele>
        <time>2014-06-05T12:18:47Z</time>
      </trkpt>
      <trkpt lat="46.53099" lon="6.1242">
        <ele>1067.681152</ele>
        <time>2014-06-05T12:18:58Z</time>
      </trkpt>
      <trkpt lat="46.53111" lon="6.12454">
        <ele>1068.162109</ele>
        <time>2014-06-05T12:19:03Z</time>
      </trkpt>
      <trkpt lat="46.53118" lon="6.12499">
        <ele>1067.681152</ele>
        <time>2014-06-05T12:19:09Z</time>
      </trkpt>
      <trkpt lat="46.53122" lon="6.12512">
        <ele>1066.719971</ele>
        <time>2014-06-05T12:19:11Z</time>
      </trkpt>
      <trkpt lat="46.53137" lon="6.12548">
        <ele>1064.797363</ele>
        <time>2014-06-05T12:19:16Z</time>
      </trkpt>
      <trkpt lat="46.53149" lon="6.12585">
        <ele>1061.432861</ele>
        <time>2014-06-05T12:19:20Z</time>
      </trkpt>
      <trkpt lat="46.53155" lon="6.12619">
        <ele>1060.471436</ele>
        <time>2014-06-05T12:19:23Z</time>
      </trkpt>
      <trkpt lat="46.53197" lon="6.12751">
        <ele>1059.510254</ele>
        <time>2014-06-05T12:19:36Z</time>
      </trkpt>
      <trkpt lat="46.532" lon="6.1276">
        <ele>1059.510254</ele>
        <time>2014-06-05T12:19:37Z</time>
      </trkpt>
      <trkpt lat="46.53262" lon="6.12859">
        <ele>1058.548828</ele>
        <time>2014-06-05T12:19:51Z</time>
      </trkpt>
      <trkpt lat="46.53313" lon="6.12941">
        <ele>1061.432861</ele>
        <time>2014-06-05T12:20:06Z</time>
      </trkpt>
      <trkpt lat="46.53327" lon="6.1296">
        <ele>1061.913574</ele>
        <time>2014-06-05T12:20:10Z</time>
      </trkpt>
      <trkpt lat="46.53351" lon="6.12972">
        <ele>1060.952148</ele>
        <time>2014-06-05T12:20:15Z</time>
      </trkpt>
      <trkpt lat="46.53446" lon="6.12999">
        <ele>1058.548828</ele>
        <time>2014-06-05T12:20:29Z</time>
      </trkpt>
      <trkpt lat="46.53533" lon="6.13076">
        <ele>1058.068359</ele>
        <time>2014-06-05T12:20:44Z</time>
      </trkpt>
      <trkpt lat="46.53607" lon="6.13138">
        <ele>1057.587646</ele>
        <time>2014-06-05T12:20:59Z</time>
      </trkpt>
      <trkpt lat="46.53667" lon="6.13213">
        <ele>1056.145508</ele>
        <time>2014-06-05T12:21:14Z</time>
      </trkpt>
      <trkpt lat="46.53673" lon="6.13223">
        <ele>1056.145508</ele>
        <time>2014-06-05T12:21:16Z</time>
      </trkpt>
      <trkpt lat="46.53691" lon="6.13254">
        <ele>1056.145508</ele>
        <time>2014-06-05T12:21:22Z</time>
      </trkpt>
      <trkpt lat="46.53729" lon="6.13319">
        <ele>1054.703613</ele>
        <time>2014-06-05T12:21:37Z</time>
      </trkpt>
      <trkpt lat="46.53776" lon="6.13417">
        <ele>1053.261719</ele>
        <time>2014-06-05T12:21:55Z</time>
      </trkpt>
      <trkpt lat="46.53805" lon="6.13485">
        <ele>1050.858154</ele>
        <time>2014-06-05T12:22:08Z</time>
      </trkpt>
      <trkpt lat="46.53814" lon="6.13509">
        <ele>1049.896973</ele>
        <time>2014-06-05T12:22:13Z</time>
      </trkpt>
      <trkpt lat="46.53817" lon="6.13568">
        <ele>1052.300293</ele>
        <time>2014-06-05T12:22:22Z</time>
      </trkpt>
      <trkpt lat="46.53771" lon="6.13692">
        <ele>1054.223145</ele>
        <time>2014-06-05T12:22:39Z</time>
      </trkpt>
      <trkpt lat="46.53738" lon="6.13783">
        <ele>1056.626221</ele>
        <time>2014-06-05T12:22:55Z</time>
      </trkpt>
      <trkpt lat="46.53713" lon="6.13838">
        <ele>1064.797363</ele>
        <time>2014-06-05T12:23:09Z</time>
      </trkpt>
      <trkpt lat="46.53679" lon="6.13867">
        <ele>1063.835938</ele>
        <time>2014-06-05T12:23:19Z</time>
      </trkpt>
      <trkpt lat="46.5365" lon="6.13881">
        <ele>1062.874756</ele>
        <time>2014-06-05T12:23:26Z</time>
      </trkpt>
      <trkpt lat="46.53626" lon="6.13908">
        <ele>1059.510254</ele>
        <time>2014-06-05T12:23:32Z</time>
      </trkpt>
      <trkpt lat="46.53604" lon="6.13946">
        <ele>1060.471436</ele>
        <time>2014-06-05T12:23:47Z</time>
      </trkpt>
      <trkpt lat="46.53584" lon="6.13979">
        <ele>1062.874756</ele>
        <time>2014-06-05T12:24:01Z</time>
      </trkpt>
      <trkpt lat="46.53563" lon="6.14019">
        <ele>1067.200684</ele>
        <time>2014-06-05T12:24:16Z</time>
      </trkpt>
      <trkpt lat="46.53542" lon="6.14056">
        <ele>1069.123535</ele>
        <time>2014-06-05T12:24:34Z</time>
      </trkpt>
      <trkpt lat="46.53525" lon="6.14087">
        <ele>1070.56543</ele>
        <time>2014-06-05T12:24:49Z</time>
      </trkpt>
      <trkpt lat="46.53511" lon="6.14115">
        <ele>1073.929932</ele>
        <time>2014-06-05T12:25:02Z</time>
      </trkpt>
      <trkpt lat="46.53507" lon="6.14126">
        <ele>1075.852539</ele>
        <time>2014-06-05T12:25:08Z</time>
      </trkpt>
      <trkpt lat="46.53509" lon="6.1414">
        <ele>1075.852539</ele>
        <time>2014-06-05T12:25:14Z</time>
      </trkpt>
      <trkpt lat="46.53538" lon="6.1418">
        <ele>1074.891357</ele>
        <time>2014-06-05T12:25:28Z</time>
      </trkpt>
      <trkpt lat="46.53582" lon="6.1423">
        <ele>1078.255859</ele>
        <time>2014-06-05T12:25:44Z</time>
      </trkpt>
      <trkpt lat="46.53624" lon="6.1427">
        <ele>1078.255859</ele>
        <time>2014-06-05T12:25:59Z</time>
      </trkpt>
      <trkpt lat="46.53671" lon="6.14311">
        <ele>1083.542969</ele>
        <time>2014-06-05T12:26:15Z</time>
      </trkpt>
      <trkpt lat="46.53704" lon="6.14345">
        <ele>1084.985352</ele>
        <time>2014-06-05T12:26:27Z</time>
      </trkpt>
      <trkpt lat="46.53754" lon="6.144">
        <ele>1087.388428</ele>
        <time>2014-06-05T12:26:44Z</time>
      </trkpt>
      <trkpt lat="46.53759" lon="6.14409">
        <ele>1086.907715</ele>
        <time>2014-06-05T12:26:46Z</time>
      </trkpt>
      <trkpt lat="46.53793" lon="6.14455">
        <ele>1084.985352</ele>
        <time>2014-06-05T12:26:57Z</time>
      </trkpt>
      <trkpt lat="46.53849" lon="6.14527">
        <ele>1083.542969</ele>
        <time>2014-06-05T12:27:14Z</time>
      </trkpt>
      <trkpt lat="46.53908" lon="6.14603">
        <ele>1084.504639</ele>
        <time>2014-06-05T12:27:32Z</time>
      </trkpt>
      <trkpt lat="46.53956" lon="6.14662">
        <ele>1086.427246</ele>
        <time>2014-06-05T12:27:48Z</time>
      </trkpt>
      <trkpt lat="46.54005" lon="6.14723">
        <ele>1088.349854</ele>
        <time>2014-06-05T12:28:07Z</time>
      </trkpt>
      <trkpt lat="46.54051" lon="6.14784">
        <ele>1088.830566</ele>
        <time>2014-06-05T12:28:24Z</time>
      </trkpt>
      <trkpt lat="46.54058" lon="6.14792">
        <ele>1088.830566</ele>
        <time>2014-06-05T12:28:26Z</time>
      </trkpt>
      <trkpt lat="46.54081" lon="6.14834">
        <ele>1088.349854</ele>
        <time>2014-06-05T12:28:34Z</time>
      </trkpt>
      <trkpt lat="46.54123" lon="6.14902">
        <ele>1090.272461</ele>
        <time>2014-06-05T12:28:47Z</time>
      </trkpt>
      <trkpt lat="46.54127" lon="6.14907">
        <ele>1090.272461</ele>
        <time>2014-06-05T12:28:48Z</time>
      </trkpt>
      <trkpt lat="46.54182" lon="6.14995">
        <ele>1092.195068</ele>
        <time>2014-06-05T12:29:04Z</time>
      </trkpt>
      <trkpt lat="46.54245" lon="6.15079">
        <ele>1093.15625</ele>
        <time>2014-06-05T12:29:19Z</time>
      </trkpt>
      <trkpt lat="46.54309" lon="6.15157">
        <ele>1094.117676</ele>
        <time>2014-06-05T12:29:34Z</time>
      </trkpt>
      <trkpt lat="46.54372" lon="6.15245">
        <ele>1090.272461</ele>
        <time>2014-06-05T12:29:51Z</time>
      </trkpt>
      <trkpt lat="46.54441" lon="6.15334">
        <ele>1091.714355</ele>
        <time>2014-06-05T12:30:10Z</time>
      </trkpt>
      <trkpt lat="46.54496" lon="6.15403">
        <ele>1092.195068</ele>
        <time>2014-06-05T12:30:25Z</time>
      </trkpt>
      <trkpt lat="46.54557" lon="6.15483">
        <ele>1090.272461</ele>
        <time>2014-06-05T12:30:40Z</time>
      </trkpt>
      <trkpt lat="46.5457" lon="6.15504">
        <ele>1088.349854</ele>
        <time>2014-06-05T12:30:43Z</time>
      </trkpt>
      <trkpt lat="46.54638" lon="6.15598">
        <ele>1087.869141</ele>
        <time>2014-06-05T12:30:57Z</time>
      </trkpt>
      <trkpt lat="46.54729" lon="6.15731">
        <ele>1079.697754</ele>
        <time>2014-06-05T12:31:14Z</time>
      </trkpt>
      <trkpt lat="46.5483" lon="6.15883">
        <ele>1072.488037</ele>
        <time>2014-06-05T12:31:31Z</time>
      </trkpt>
      <trkpt lat="46.54849" lon="6.15915">
        <ele>1072.488037</ele>
        <time>2014-06-05T12:31:35Z</time>
      </trkpt>
      <trkpt lat="46.54938" lon="6.16003">
        <ele>1071.046143</ele>
        <time>2014-06-05T12:31:49Z</time>
      </trkpt>
      <trkpt lat="46.55011" lon="6.16078">
        <ele>1069.604248</ele>
        <time>2014-06-05T12:32:01Z</time>
      </trkpt>
      <trkpt lat="46.55078" lon="6.16139">
        <ele>1066.719971</ele>
        <time>2014-06-05T12:32:10Z</time>
      </trkpt>
      <trkpt lat="46.5518" lon="6.16236">
        <ele>1060.952148</ele>
        <time>2014-06-05T12:32:24Z</time>
      </trkpt>
      <trkpt lat="46.55268" lon="6.16325">
        <ele>1057.587646</ele>
        <time>2014-06-05T12:32:37Z</time>
      </trkpt>
      <trkpt lat="46.5539" lon="6.16442">
        <ele>1052.781006</ele>
        <time>2014-06-05T12:32:55Z</time>
      </trkpt>
      <trkpt lat="46.55489" lon="6.16549">
        <ele>1047.012939</ele>
        <time>2014-06-05T12:33:11Z</time>
      </trkpt>
      <trkpt lat="46.55577" lon="6.16659">
        <ele>1044.12915</ele>
        <time>2014-06-05T12:33:27Z</time>
      </trkpt>
      <trkpt lat="46.55655" lon="6.16757">
        <ele>1044.609619</ele>
        <time>2014-06-05T12:33:44Z</time>
      </trkpt>
      <trkpt lat="46.55731" lon="6.16851">
        <ele>1044.12915</ele>
        <time>2014-06-05T12:34:02Z</time>
      </trkpt>
      <trkpt lat="46.55834" lon="6.16977">
        <ele>1042.687256</ele>
        <time>2014-06-05T12:34:26Z</time>
      </trkpt>
      <trkpt lat="46.55923" lon="6.17087">
        <ele>1041.72583</ele>
        <time>2014-06-05T12:34:46Z</time>
      </trkpt>
      <trkpt lat="46.56004" lon="6.17186">
        <ele>1042.687256</ele>
        <time>2014-06-05T12:35:07Z</time>
      </trkpt>
      <trkpt lat="46.56067" lon="6.17266">
        <ele>1043.648438</ele>
        <time>2014-06-05T12:35:26Z</time>
      </trkpt>
      <trkpt lat="46.56131" lon="6.17356">
        <ele>1042.687256</ele>
        <time>2014-06-05T12:35:42Z</time>
      </trkpt>
      <trkpt lat="46.56225" lon="6.17489">
        <ele>1040.283936</ele>
        <time>2014-06-05T12:36:02Z</time>
      </trkpt>
      <trkpt lat="46.56281" lon="6.1757">
        <ele>1041.72583</ele>
        <time>2014-06-05T12:36:18Z</time>
      </trkpt>
      <trkpt lat="46.56331" lon="6.17646">
        <ele>1043.648438</ele>
        <time>2014-06-05T12:36:38Z</time>
      </trkpt>
      <trkpt lat="46.56386" lon="6.17735">
        <ele>1044.609619</ele>
        <time>2014-06-05T12:36:59Z</time>
      </trkpt>
      <trkpt lat="46.56448" lon="6.1784">
        <ele>1042.206543</ele>
        <time>2014-06-05T12:37:17Z</time>
      </trkpt>
      <trkpt lat="46.56516" lon="6.17965">
        <ele>1040.283936</ele>
        <time>2014-06-05T12:37:36Z</time>
      </trkpt>
      <trkpt lat="46.56589" lon="6.18102">
        <ele>1039.803223</ele>
        <time>2014-06-05T12:37:55Z</time>
      </trkpt>
      <trkpt lat="46.56652" lon="6.18219">
        <ele>1039.32251</ele>
        <time>2014-06-05T12:38:12Z</time>
      </trkpt>
      <trkpt lat="46.56718" lon="6.18319">
        <ele>1043.167725</ele>
        <time>2014-06-05T12:38:31Z</time>
      </trkpt>
      <trkpt lat="46.56782" lon="6.18392">
        <ele>1044.609619</ele>
        <time>2014-06-05T12:38:50Z</time>
      </trkpt>
      <trkpt lat="46.56851" lon="6.18468">
        <ele>1044.12915</ele>
        <time>2014-06-05T12:39:07Z</time>
      </trkpt>
      <trkpt lat="46.56924" lon="6.18545">
        <ele>1040.764404</ele>
        <time>2014-06-05T12:39:22Z</time>
      </trkpt>
      <trkpt lat="46.57019" lon="6.18652">
        <ele>1036.919189</ele>
        <time>2014-06-05T12:39:36Z</time>
      </trkpt>
      <trkpt lat="46.57071" lon="6.18757">
        <ele>1036.919189</ele>
        <time>2014-06-05T12:39:48Z</time>
      </trkpt>
      <trkpt lat="46.57098" lon="6.18825">
        <ele>1037.399902</ele>
        <time>2014-06-05T12:40:02Z</time>
      </trkpt>
      <trkpt lat="46.57102" lon="6.18839">
        <ele>1037.880615</ele>
        <time>2014-06-05T12:40:14Z</time>
      </trkpt>
      <trkpt lat="46.57102" lon="6.18838">
        <ele>1036.438721</ele>
        <time>2014-06-05T12:40:39Z</time>
      </trkpt>
      <trkpt lat="46.57098" lon="6.18852">
        <ele>1036.919189</ele>
        <time>2014-06-05T12:40:47Z</time>
      </trkpt>
      <trkpt lat="46.57099" lon="6.18856">
        <ele>1036.438721</ele>
        <time>2014-06-05T12:41:01Z</time>
      </trkpt>
      <trkpt lat="46.571" lon="6.18856">
        <ele>1037.880615</ele>
        <time>2014-06-05T12:48:35Z</time>
      </trkpt>
      <trkpt lat="46.57121" lon="6.18875">
        <ele>1039.803223</ele>
        <time>2014-06-05T12:48:44Z</time>
      </trkpt>
      <trkpt lat="46.57158" lon="6.18957">
        <ele>1042.687256</ele>
        <time>2014-06-05T12:49:00Z</time>
      </trkpt>
      <trkpt lat="46.57163" lon="6.18976">
        <ele>1042.687256</ele>
        <time>2014-06-05T12:49:03Z</time>
      </trkpt>
      <trkpt lat="46.57214" lon="6.19096">
        <ele>1044.12915</ele>
        <time>2014-06-05T12:49:24Z</time>
      </trkpt>
      <trkpt lat="46.57234" lon="6.19142">
        <ele>1045.571045</ele>
        <time>2014-06-05T12:49:32Z</time>
      </trkpt>
      <trkpt lat="46.57271" lon="6.19234">
        <ele>1044.609619</ele>
        <time>2014-06-05T12:49:48Z</time>
      </trkpt>
      <trkpt lat="46.57316" lon="6.19345">
        <ele>1047.012939</ele>
        <time>2014-06-05T12:50:07Z</time>
      </trkpt>
      <trkpt lat="46.57355" lon="6.1944">
        <ele>1048.935547</ele>
        <time>2014-06-05T12:50:23Z</time>
      </trkpt>
      <trkpt lat="46.57396" lon="6.19546">
        <ele>1046.051758</ele>
        <time>2014-06-05T12:50:37Z</time>
      </trkpt>
      <trkpt lat="46.57437" lon="6.19645">
        <ele>1046.051758</ele>
        <time>2014-06-05T12:50:51Z</time>
      </trkpt>
      <trkpt lat="46.57497" lon="6.19759">
        <ele>1047.493652</ele>
        <time>2014-06-05T12:51:11Z</time>
      </trkpt>
      <trkpt lat="46.57547" lon="6.19848">
        <ele>1049.41626</ele>
        <time>2014-06-05T12:51:31Z</time>
      </trkpt>
      <trkpt lat="46.57579" lon="6.1991">
        <ele>1051.338867</ele>
        <time>2014-06-05T12:51:48Z</time>
      </trkpt>
      <trkpt lat="46.57613" lon="6.1998">
        <ele>1054.703613</ele>
        <time>2014-06-05T12:52:05Z</time>
      </trkpt>
      <trkpt lat="46.57659" lon="6.20075">
        <ele>1052.781006</ele>
        <time>2014-06-05T12:52:24Z</time>
      </trkpt>
      <trkpt lat="46.57701" lon="6.20166">
        <ele>1048.935547</ele>
        <time>2014-06-05T12:52:38Z</time>
      </trkpt>
      <trkpt lat="46.5775" lon="6.20264">
        <ele>1050.858154</ele>
        <time>2014-06-05T12:52:53Z</time>
      </trkpt>
      <trkpt lat="46.57789" lon="6.20346">
        <ele>1053.261719</ele>
        <time>2014-06-05T12:53:09Z</time>
      </trkpt>
      <trkpt lat="46.57817" lon="6.20402">
        <ele>1054.223145</ele>
        <time>2014-06-05T12:53:22Z</time>
      </trkpt>
      <trkpt lat="46.57849" lon="6.20464">
        <ele>1055.665039</ele>
        <time>2014-06-05T12:53:36Z</time>
      </trkpt>
      <trkpt lat="46.57876" lon="6.20519">
        <ele>1056.145508</ele>
        <time>2014-06-05T12:53:48Z</time>
      </trkpt>
      <trkpt lat="46.57909" lon="6.20589">
        <ele>1056.145508</ele>
        <time>2014-06-05T12:54:02Z</time>
      </trkpt>
      <trkpt lat="46.57911" lon="6.20596">
        <ele>1056.145508</ele>
        <time>2014-06-05T12:54:03Z</time>
      </trkpt>
      <trkpt lat="46.57912" lon="6.20607">
        <ele>1056.145508</ele>
        <time>2014-06-05T12:54:05Z</time>
      </trkpt>
      <trkpt lat="46.57899" lon="6.20606">
        <ele>1058.068359</ele>
        <time>2014-06-05T12:54:10Z</time>
      </trkpt>
      <trkpt lat="46.5786" lon="6.20567">
        <ele>1063.355469</ele>
        <time>2014-06-05T12:54:26Z</time>
      </trkpt>
      <trkpt lat="46.57836" lon="6.20534">
        <ele>1067.200684</ele>
        <time>2014-06-05T12:54:41Z</time>
      </trkpt>
      <trkpt lat="46.57809" lon="6.2051">
        <ele>1068.642822</ele>
        <time>2014-06-05T12:54:54Z</time>
      </trkpt>
      <trkpt lat="46.57786" lon="6.20534">
        <ele>1070.56543</ele>
        <time>2014-06-05T12:55:06Z</time>
      </trkpt>
      <trkpt lat="46.57785" lon="6.20572">
        <ele>1069.123535</ele>
        <time>2014-06-05T12:55:18Z</time>
      </trkpt>
      <trkpt lat="46.57808" lon="6.20611">
        <ele>1071.526611</ele>
        <time>2014-06-05T12:55:32Z</time>
      </trkpt>
      <trkpt lat="46.57831" lon="6.20659">
        <ele>1078.255859</ele>
        <time>2014-06-05T12:55:49Z</time>
      </trkpt>
      <trkpt lat="46.57845" lon="6.20692">
        <ele>1082.581787</ele>
        <time>2014-06-05T12:56:01Z</time>
      </trkpt>
      <trkpt lat="46.5786" lon="6.20725">
        <ele>1085.946533</ele>
        <time>2014-06-05T12:56:13Z</time>
      </trkpt>
      <trkpt lat="46.5787" lon="6.20754">
        <ele>1091.714355</ele>
        <time>2014-06-05T12:56:25Z</time>
      </trkpt>
      <trkpt lat="46.57886" lon="6.20793">
        <ele>1095.078857</ele>
        <time>2014-06-05T12:56:40Z</time>
      </trkpt>
      <trkpt lat="46.57887" lon="6.20794">
        <ele>1095.078857</ele>
        <time>2014-06-05T12:56:41Z</time>
      </trkpt>
      <trkpt lat="46.57898" lon="6.20829">
        <ele>1089.311035</ele>
        <time>2014-06-05T12:56:54Z</time>
      </trkpt>
      <trkpt lat="46.57909" lon="6.2086">
        <ele>1084.504639</ele>
        <time>2014-06-05T12:57:06Z</time>
      </trkpt>
      <trkpt lat="46.5792" lon="6.20893">
        <ele>1079.697754</ele>
        <time>2014-06-05T12:57:19Z</time>
      </trkpt>
      <trkpt lat="46.57933" lon="6.20929">
        <ele>1083.062256</ele>
        <time>2014-06-05T12:57:31Z</time>
      </trkpt>
      <trkpt lat="46.57928" lon="6.20969">
        <ele>1092.675781</ele>
        <time>2014-06-05T12:57:45Z</time>
      </trkpt>
      <trkpt lat="46.57908" lon="6.20964">
        <ele>1095.55957</ele>
        <time>2014-06-05T12:57:56Z</time>
      </trkpt>
      <trkpt lat="46.57884" lon="6.20942">
        <ele>1099.404785</ele>
        <time>2014-06-05T12:58:12Z</time>
      </trkpt>
      <trkpt lat="46.57863" lon="6.20919">
        <ele>1102.288818</ele>
        <time>2014-06-05T12:58:27Z</time>
      </trkpt>
      <trkpt lat="46.57845" lon="6.20898">
        <ele>1104.692139</ele>
        <time>2014-06-05T12:58:41Z</time>
      </trkpt>
      <trkpt lat="46.57825" lon="6.20875">
        <ele>1108.056885</ele>
        <time>2014-06-05T12:58:56Z</time>
      </trkpt>
      <trkpt lat="46.57806" lon="6.20852">
        <ele>1112.382568</ele>
        <time>2014-06-05T12:59:12Z</time>
      </trkpt>
      <trkpt lat="46.57776" lon="6.20826">
        <ele>1113.824463</ele>
        <time>2014-06-05T12:59:30Z</time>
      </trkpt>
      <trkpt lat="46.57765" lon="6.2082">
        <ele>1115.266602</ele>
        <time>2014-06-05T12:59:36Z</time>
      </trkpt>
      <trkpt lat="46.57729" lon="6.20801">
        <ele>1118.150635</ele>
        <time>2014-06-05T12:59:56Z</time>
      </trkpt>
      <trkpt lat="46.57719" lon="6.20797">
        <ele>1119.592773</ele>
        <time>2014-06-05T13:00:02Z</time>
      </trkpt>
      <trkpt lat="46.57712" lon="6.20794">
        <ele>1121.515137</ele>
        <time>2014-06-05T13:00:07Z</time>
      </trkpt>
      <trkpt lat="46.57682" lon="6.20782">
        <ele>1126.321777</ele>
        <time>2014-06-05T13:00:26Z</time>
      </trkpt>
      <trkpt lat="46.57656" lon="6.20773">
        <ele>1129.686279</ele>
        <time>2014-06-05T13:00:41Z</time>
      </trkpt>
      <trkpt lat="46.5762" lon="6.20768">
        <ele>1131.608887</ele>
        <time>2014-06-05T13:01:01Z</time>
      </trkpt>
      <trkpt lat="46.5759" lon="6.20765">
        <ele>1134.493164</ele>
        <time>2014-06-05T13:01:19Z</time>
      </trkpt>
      <trkpt lat="46.57558" lon="6.20761">
        <ele>1139.299561</ele>
        <time>2014-06-05T13:01:38Z</time>
      </trkpt>
      <trkpt lat="46.57531" lon="6.20758">
        <ele>1144.106201</ele>
        <time>2014-06-05T13:01:54Z</time>
      </trkpt>
      <trkpt lat="46.57507" lon="6.20753">
        <ele>1145.067383</ele>
        <time>2014-06-05T13:02:08Z</time>
      </trkpt>
      <trkpt lat="46.57481" lon="6.20757">
        <ele>1147.470703</ele>
        <time>2014-06-05T13:02:23Z</time>
      </trkpt>
      <trkpt lat="46.57469" lon="6.20778">
        <ele>1149.393555</ele>
        <time>2014-06-05T13:02:34Z</time>
      </trkpt>
      <trkpt lat="46.57468" lon="6.20809">
        <ele>1152.277344</ele>
        <time>2014-06-05T13:02:47Z</time>
      </trkpt>
      <trkpt lat="46.57465" lon="6.20844">
        <ele>1156.122559</ele>
        <time>2014-06-05T13:03:01Z</time>
      </trkpt>
      <trkpt lat="46.57458" lon="6.20871">
        <ele>1160.929199</ele>
        <time>2014-06-05T13:03:13Z</time>
      </trkpt>
      <trkpt lat="46.57437" lon="6.20874">
        <ele>1161.890625</ele>
        <time>2014-06-05T13:03:26Z</time>
      </trkpt>
      <trkpt lat="46.57406" lon="6.20859">
        <ele>1161.890625</ele>
        <time>2014-06-05T13:03:45Z</time>
      </trkpt>
      <trkpt lat="46.5738" lon="6.20851">
        <ele>1164.293945</ele>
        <time>2014-06-05T13:04:01Z</time>
      </trkpt>
      <trkpt lat="46.57351" lon="6.20845">
        <ele>1167.658447</ele>
        <time>2014-06-05T13:04:19Z</time>
      </trkpt>
      <trkpt lat="46.57329" lon="6.20869">
        <ele>1172.945801</ele>
        <time>2014-06-05T13:04:33Z</time>
      </trkpt>
      <trkpt lat="46.5733" lon="6.20906">
        <ele>1179.194092</ele>
        <time>2014-06-05T13:04:48Z</time>
      </trkpt>
      <trkpt lat="46.57332" lon="6.20946">
        <ele>1184.962402</ele>
        <time>2014-06-05T13:05:04Z</time>
      </trkpt>
      <trkpt lat="46.57338" lon="6.20989">
        <ele>1189.288086</ele>
        <time>2014-06-05T13:05:18Z</time>
      </trkpt>
      <trkpt lat="46.57342" lon="6.21034">
        <ele>1194.575195</ele>
        <time>2014-06-05T13:05:35Z</time>
      </trkpt>
      <trkpt lat="46.57342" lon="6.21066">
        <ele>1191.691406</ele>
        <time>2014-06-05T13:05:50Z</time>
      </trkpt>
      <trkpt lat="46.57345" lon="6.21104">
        <ele>1194.575195</ele>
        <time>2014-06-05T13:06:05Z</time>
      </trkpt>
      <trkpt lat="46.57352" lon="6.21134">
        <ele>1196.97876</ele>
        <time>2014-06-05T13:06:18Z</time>
      </trkpt>
      <trkpt lat="46.57354" lon="6.21166">
        <ele>1202.746582</ele>
        <time>2014-06-05T13:06:32Z</time>
      </trkpt>
      <trkpt lat="46.57353" lon="6.21172">
        <ele>1203.708008</ele>
        <time>2014-06-05T13:06:35Z</time>
      </trkpt>
      <trkpt lat="46.57351" lon="6.2118">
        <ele>1205.149902</ele>
        <time>2014-06-05T13:06:39Z</time>
      </trkpt>
      <trkpt lat="46.57355" lon="6.21214">
        <ele>1204.188721</ele>
        <time>2014-06-05T13:06:51Z</time>
      </trkpt>
      <trkpt lat="46.57355" lon="6.21228">
        <ele>1205.149902</ele>
        <time>2014-06-05T13:06:57Z</time>
      </trkpt>
      <trkpt lat="46.57353" lon="6.21241">
        <ele>1208.995117</ele>
        <time>2014-06-05T13:07:03Z</time>
      </trkpt>
      <trkpt lat="46.57352" lon="6.21244">
        <ele>1210.437012</ele>
        <time>2014-06-05T13:07:05Z</time>
      </trkpt>
      <trkpt lat="46.57348" lon="6.21269">
        <ele>1216.685791</ele>
        <time>2014-06-05T13:07:15Z</time>
      </trkpt>
      <trkpt lat="46.57346" lon="6.21288">
        <ele>1220.050293</ele>
        <time>2014-06-05T13:07:21Z</time>
      </trkpt>
      <trkpt lat="46.57351" lon="6.21313">
        <ele>1222.453613</ele>
        <time>2014-06-05T13:07:30Z</time>
      </trkpt>
      <trkpt lat="46.57346" lon="6.21331">
        <ele>1219.569824</ele>
        <time>2014-06-05T13:07:46Z</time>
      </trkpt>
      <trkpt lat="46.57344" lon="6.21337">
        <ele>1219.569824</ele>
        <time>2014-06-05T13:07:49Z</time>
      </trkpt>
      <trkpt lat="46.57344" lon="6.21359">
        <ele>1221.011719</ele>
        <time>2014-06-05T13:07:59Z</time>
      </trkpt>
      <trkpt lat="46.57343" lon="6.21362">
        <ele>1220.531006</ele>
        <time>2014-06-05T13:08:01Z</time>
      </trkpt>
      <trkpt lat="46.57347" lon="6.21386">
        <ele>1221.9729</ele>
        <time>2014-06-05T13:08:12Z</time>
      </trkpt>
      <trkpt lat="46.5735" lon="6.21397">
        <ele>1222.453613</ele>
        <time>2014-06-05T13:08:17Z</time>
      </trkpt>
      <trkpt lat="46.57337" lon="6.21435">
        <ele>1219.089111</ele>
        <time>2014-06-05T13:08:32Z</time>
      </trkpt>
      <trkpt lat="46.57335" lon="6.21454">
        <ele>1220.050293</ele>
        <time>2014-06-05T13:08:40Z</time>
      </trkpt>
      <trkpt lat="46.57335" lon="6.21461">
        <ele>1221.011719</ele>
        <time>2014-06-05T13:08:44Z</time>
      </trkpt>
      <trkpt lat="46.57331" lon="6.21483">
        <ele>1222.934326</ele>
        <time>2014-06-05T13:08:54Z</time>
      </trkpt>
      <trkpt lat="46.57303" lon="6.21488">
        <ele>1225.337402</ele>
        <time>2014-06-05T13:09:07Z</time>
      </trkpt>
      <trkpt lat="46.57274" lon="6.21475">
        <ele>1221.9729</ele>
        <time>2014-06-05T13:09:21Z</time>
      </trkpt>
      <trkpt lat="46.57264" lon="6.21502">
        <ele>1221.9729</ele>
        <time>2014-06-05T13:09:32Z</time>
      </trkpt>
      <trkpt lat="46.57268" lon="6.21537">
        <ele>1225.818115</ele>
        <time>2014-06-05T13:09:46Z</time>
      </trkpt>
      <trkpt lat="46.57272" lon="6.21571">
        <ele>1227.740723</ele>
        <time>2014-06-05T13:09:57Z</time>
      </trkpt>
      <trkpt lat="46.5726" lon="6.21597">
        <ele>1232.066895</ele>
        <time>2014-06-05T13:10:11Z</time>
      </trkpt>
      <trkpt lat="46.57234" lon="6.21602">
        <ele>1234.470215</ele>
        <time>2014-06-05T13:10:24Z</time>
      </trkpt>
      <trkpt lat="46.5723" lon="6.21601">
        <ele>1235.431396</ele>
        <time>2014-06-05T13:10:27Z</time>
      </trkpt>
      <trkpt lat="46.57192" lon="6.21595">
        <ele>1238.31543</ele>
        <time>2014-06-05T13:10:45Z</time>
      </trkpt>
      <trkpt lat="46.57165" lon="6.21585">
        <ele>1238.31543</ele>
        <time>2014-06-05T13:11:00Z</time>
      </trkpt>
      <trkpt lat="46.57137" lon="6.21563">
        <ele>1238.796143</ele>
        <time>2014-06-05T13:11:14Z</time>
      </trkpt>
      <trkpt lat="46.571" lon="6.21547">
        <ele>1237.834717</ele>
        <time>2014-06-05T13:11:28Z</time>
      </trkpt>
      <trkpt lat="46.57091" lon="6.21579">
        <ele>1239.757324</ele>
        <time>2014-06-05T13:11:38Z</time>
      </trkpt>
      <trkpt lat="46.57091" lon="6.21604">
        <ele>1241.679932</ele>
        <time>2014-06-05T13:11:48Z</time>
      </trkpt>
      <trkpt lat="46.57083" lon="6.21635">
        <ele>1247.928711</ele>
        <time>2014-06-05T13:12:03Z</time>
      </trkpt>
      <trkpt lat="46.57073" lon="6.21666">
        <ele>1253.21582</ele>
        <time>2014-06-05T13:12:19Z</time>
      </trkpt>
      <trkpt lat="46.57062" lon="6.217">
        <ele>1257.541748</ele>
        <time>2014-06-05T13:12:35Z</time>
      </trkpt>
      <trkpt lat="46.57063" lon="6.21735">
        <ele>1259.464355</ele>
        <time>2014-06-05T13:12:50Z</time>
      </trkpt>
      <trkpt lat="46.57068" lon="6.21774">
        <ele>1262.348389</ele>
        <time>2014-06-05T13:13:06Z</time>
      </trkpt>
      <trkpt lat="46.57081" lon="6.21816">
        <ele>1266.674316</ele>
        <time>2014-06-05T13:13:25Z</time>
      </trkpt>
      <trkpt lat="46.5709" lon="6.21839">
        <ele>1270.038818</ele>
        <time>2014-06-05T13:13:37Z</time>
      </trkpt>
      <trkpt lat="46.57092" lon="6.21847">
        <ele>1271.480713</ele>
        <time>2014-06-05T13:13:41Z</time>
      </trkpt>
      <trkpt lat="46.57092" lon="6.21853">
        <ele>1272.922852</ele>
        <time>2014-06-05T13:13:44Z</time>
      </trkpt>
      <trkpt lat="46.57094" lon="6.21866">
        <ele>1275.325928</ele>
        <time>2014-06-05T13:13:51Z</time>
      </trkpt>
      <trkpt lat="46.57096" lon="6.21882">
        <ele>1277.729492</ele>
        <time>2014-06-05T13:13:59Z</time>
      </trkpt>
      <trkpt lat="46.57106" lon="6.21916">
        <ele>1280.132813</ele>
        <time>2014-06-05T13:14:11Z</time>
      </trkpt>
      <trkpt lat="46.57105" lon="6.21918">
        <ele>1280.613525</ele>
        <time>2014-06-05T13:14:12Z</time>
      </trkpt>
      <trkpt lat="46.57106" lon="6.21929">
        <ele>1282.05542</ele>
        <time>2014-06-05T13:14:17Z</time>
      </trkpt>
      <trkpt lat="46.57103" lon="6.21939">
        <ele>1284.45874</ele>
        <time>2014-06-05T13:14:21Z</time>
      </trkpt>
      <trkpt lat="46.57101" lon="6.21969">
        <ele>1284.939453</ele>
        <time>2014-06-05T13:14:35Z</time>
      </trkpt>
      <trkpt lat="46.57103" lon="6.21977">
        <ele>1283.978027</ele>
        <time>2014-06-05T13:14:39Z</time>
      </trkpt>
      <trkpt lat="46.57112" lon="6.22008">
        <ele>1284.45874</ele>
        <time>2014-06-05T13:14:54Z</time>
      </trkpt>
      <trkpt lat="46.57119" lon="6.2204">
        <ele>1288.303955</ele>
        <time>2014-06-05T13:15:08Z</time>
      </trkpt>
      <trkpt lat="46.57126" lon="6.22063">
        <ele>1290.707031</ele>
        <time>2014-06-05T13:15:19Z</time>
      </trkpt>
      <trkpt lat="46.57129" lon="6.22095">
        <ele>1292.149414</ele>
        <time>2014-06-05T13:15:34Z</time>
      </trkpt>
      <trkpt lat="46.57132" lon="6.22121">
        <ele>1291.668457</ele>
        <time>2014-06-05T13:15:47Z</time>
      </trkpt>
      <trkpt lat="46.57133" lon="6.22135">
        <ele>1292.149414</ele>
        <time>2014-06-05T13:15:53Z</time>
      </trkpt>
      <trkpt lat="46.57134" lon="6.22139">
        <ele>1292.149414</ele>
        <time>2014-06-05T13:15:55Z</time>
      </trkpt>
      <trkpt lat="46.57135" lon="6.22157">
        <ele>1291.187744</ele>
        <time>2014-06-05T13:16:04Z</time>
      </trkpt>
      <trkpt lat="46.57139" lon="6.22187">
        <ele>1292.630127</ele>
        <time>2014-06-05T13:16:18Z</time>
      </trkpt>
      <trkpt lat="46.57138" lon="6.22198">
        <ele>1293.110596</ele>
        <time>2014-06-05T13:16:23Z</time>
      </trkpt>
      <trkpt lat="46.57136" lon="6.22212">
        <ele>1294.55249</ele>
        <time>2014-06-05T13:16:29Z</time>
      </trkpt>
      <trkpt lat="46.57126" lon="6.22239">
        <ele>1301.762451</ele>
        <time>2014-06-05T13:16:41Z</time>
      </trkpt>
      <trkpt lat="46.57114" lon="6.22266">
        <ele>1304.165771</ele>
        <time>2014-06-05T13:16:52Z</time>
      </trkpt>
      <trkpt lat="46.57098" lon="6.22299">
        <ele>1308.972412</ele>
        <time>2014-06-05T13:17:06Z</time>
      </trkpt>
      <trkpt lat="46.57077" lon="6.22326">
        <ele>1311.375732</ele>
        <time>2014-06-05T13:17:22Z</time>
      </trkpt>
      <trkpt lat="46.57053" lon="6.22344">
        <ele>1311.375732</ele>
        <time>2014-06-05T13:17:35Z</time>
      </trkpt>
      <trkpt lat="46.57025" lon="6.22362">
        <ele>1312.817627</ele>
        <time>2014-06-05T13:17:49Z</time>
      </trkpt>
      <trkpt lat="46.56993" lon="6.2238">
        <ele>1312.336914</ele>
        <time>2014-06-05T13:18:03Z</time>
      </trkpt>
      <trkpt lat="46.56963" lon="6.22398">
        <ele>1312.817627</ele>
        <time>2014-06-05T13:18:16Z</time>
      </trkpt>
      <trkpt lat="46.56929" lon="6.22418">
        <ele>1313.29834</ele>
        <time>2014-06-05T13:18:29Z</time>
      </trkpt>
      <trkpt lat="46.56893" lon="6.22439">
        <ele>1314.259521</ele>
        <time>2014-06-05T13:18:42Z</time>
      </trkpt>
      <trkpt lat="46.56844" lon="6.2248">
        <ele>1316.662842</ele>
        <time>2014-06-05T13:18:58Z</time>
      </trkpt>
      <trkpt lat="46.56833" lon="6.22534">
        <ele>1318.585449</ele>
        <time>2014-06-05T13:19:11Z</time>
      </trkpt>
      <trkpt lat="46.56823" lon="6.22594">
        <ele>1323.872559</ele>
        <time>2014-06-05T13:19:29Z</time>
      </trkpt>
      <trkpt lat="46.56816" lon="6.22637">
        <ele>1325.79541</ele>
        <time>2014-06-05T13:19:45Z</time>
      </trkpt>
      <trkpt lat="46.56806" lon="6.22679">
        <ele>1328.679443</ele>
        <time>2014-06-05T13:20:00Z</time>
      </trkpt>
      <trkpt lat="46.56793" lon="6.22719">
        <ele>1327.718018</ele>
        <time>2014-06-05T13:20:13Z</time>
      </trkpt>
      <trkpt lat="46.56775" lon="6.22762">
        <ele>1329.640625</ele>
        <time>2014-06-05T13:20:29Z</time>
      </trkpt>
      <trkpt lat="46.5676" lon="6.22799">
        <ele>1330.602051</ele>
        <time>2014-06-05T13:20:46Z</time>
      </trkpt>
      <trkpt lat="46.56747" lon="6.22834">
        <ele>1332.524658</ele>
        <time>2014-06-05T13:21:02Z</time>
      </trkpt>
      <trkpt lat="46.56735" lon="6.2287">
        <ele>1336.369873</ele>
        <time>2014-06-05T13:21:18Z</time>
      </trkpt>
      <trkpt lat="46.56722" lon="6.22898">
        <ele>1337.811768</ele>
        <time>2014-06-05T13:21:32Z</time>
      </trkpt>
      <trkpt lat="46.56708" lon="6.22936">
        <ele>1339.253662</ele>
        <time>2014-06-05T13:21:49Z</time>
      </trkpt>
      <trkpt lat="46.5669" lon="6.22976">
        <ele>1342.618652</ele>
        <time>2014-06-05T13:22:05Z</time>
      </trkpt>
      <trkpt lat="46.56678" lon="6.23016">
        <ele>1346.944336</ele>
        <time>2014-06-05T13:22:21Z</time>
      </trkpt>
      <trkpt lat="46.5667" lon="6.2306">
        <ele>1349.347656</ele>
        <time>2014-06-05T13:22:37Z</time>
      </trkpt>
      <trkpt lat="46.56661" lon="6.23114">
        <ele>1352.231445</ele>
        <time>2014-06-05T13:22:53Z</time>
      </trkpt>
      <trkpt lat="46.56655" lon="6.23168">
        <ele>1351.750977</ele>
        <time>2014-06-05T13:23:09Z</time>
      </trkpt>
      <trkpt lat="46.56649" lon="6.23216">
        <ele>1353.192871</ele>
        <time>2014-06-05T13:23:23Z</time>
      </trkpt>
      <trkpt lat="46.56641" lon="6.23262">
        <ele>1356.076904</ele>
        <time>2014-06-05T13:23:35Z</time>
      </trkpt>
      <trkpt lat="46.56629" lon="6.23335">
        <ele>1358.480225</ele>
        <time>2014-06-05T13:23:51Z</time>
      </trkpt>
      <trkpt lat="46.56609" lon="6.23419">
        <ele>1360.883545</ele>
        <time>2014-06-05T13:24:06Z</time>
      </trkpt>
      <trkpt lat="46.56595" lon="6.23477">
        <ele>1358.480225</ele>
        <time>2014-06-05T13:24:15Z</time>
      </trkpt>
      <trkpt lat="46.56577" lon="6.23556">
        <ele>1356.076904</ele>
        <time>2014-06-05T13:24:27Z</time>
      </trkpt>
      <trkpt lat="46.56548" lon="6.23667">
        <ele>1357.999756</ele>
        <time>2014-06-05T13:24:44Z</time>
      </trkpt>
      <trkpt lat="46.56523" lon="6.23771">
        <ele>1352.712158</ele>
        <time>2014-06-05T13:24:58Z</time>
      </trkpt>
      <trkpt lat="46.56513" lon="6.23816">
        <ele>1349.828369</ele>
        <time>2014-06-05T13:25:03Z</time>
      </trkpt>
      <trkpt lat="46.56476" lon="6.23958">
        <ele>1342.618652</ele>
        <time>2014-06-05T13:25:15Z</time>
      </trkpt>
      <trkpt lat="46.56431" lon="6.2414">
        <ele>1337.331055</ele>
        <time>2014-06-05T13:25:29Z</time>
      </trkpt>
      <trkpt lat="46.56403" lon="6.24247">
        <ele>1336.850342</ele>
        <time>2014-06-05T13:25:41Z</time>
      </trkpt>
      <trkpt lat="46.56386" lon="6.24324">
        <ele>1337.811768</ele>
        <time>2014-06-05T13:25:52Z</time>
      </trkpt>
      <trkpt lat="46.56362" lon="6.24421">
        <ele>1340.695801</ele>
        <time>2014-06-05T13:26:09Z</time>
      </trkpt>
      <trkpt lat="46.56341" lon="6.24499">
        <ele>1343.099121</ele>
        <time>2014-06-05T13:26:27Z</time>
      </trkpt>
      <trkpt lat="46.56322" lon="6.24576">
        <ele>1344.541016</ele>
        <time>2014-06-05T13:26:43Z</time>
      </trkpt>
      <trkpt lat="46.56298" lon="6.24669">
        <ele>1344.060547</ele>
        <time>2014-06-05T13:26:59Z</time>
      </trkpt>
      <trkpt lat="46.56273" lon="6.24723">
        <ele>1341.657227</ele>
        <time>2014-06-05T13:27:08Z</time>
      </trkpt>
      <trkpt lat="46.56256" lon="6.24741">
        <ele>1340.215332</ele>
        <time>2014-06-05T13:27:12Z</time>
      </trkpt>
      <trkpt lat="46.56168" lon="6.24785">
        <ele>1339.253662</ele>
        <time>2014-06-05T13:27:29Z</time>
      </trkpt>
      <trkpt lat="46.5609" lon="6.24807">
        <ele>1339.253662</ele>
        <time>2014-06-05T13:27:44Z</time>
      </trkpt>
      <trkpt lat="46.5601" lon="6.24811">
        <ele>1340.215332</ele>
        <time>2014-06-05T13:28:01Z</time>
      </trkpt>
      <trkpt lat="46.5597" lon="6.24845">
        <ele>1342.618652</ele>
        <time>2014-06-05T13:28:16Z</time>
      </trkpt>
      <trkpt lat="46.55954" lon="6.2488">
        <ele>1346.944336</ele>
        <time>2014-06-05T13:28:28Z</time>
      </trkpt>
      <trkpt lat="46.55941" lon="6.24927">
        <ele>1352.712158</ele>
        <time>2014-06-05T13:28:44Z</time>
      </trkpt>
      <trkpt lat="46.55933" lon="6.24973">
        <ele>1354.634766</ele>
        <time>2014-06-05T13:29:00Z</time>
      </trkpt>
      <trkpt lat="46.55927" lon="6.25014">
        <ele>1355.596191</ele>
        <time>2014-06-05T13:29:15Z</time>
      </trkpt>
      <trkpt lat="46.55922" lon="6.25052">
        <ele>1357.519043</ele>
        <time>2014-06-05T13:29:30Z</time>
      </trkpt>
      <trkpt lat="46.55913" lon="6.25098">
        <ele>1359.44165</ele>
        <time>2014-06-05T13:29:47Z</time>
      </trkpt>
      <trkpt lat="46.55907" lon="6.25142">
        <ele>1357.03833</ele>
        <time>2014-06-05T13:30:04Z</time>
      </trkpt>
      <trkpt lat="46.55898" lon="6.25195">
        <ele>1359.44165</ele>
        <time>2014-06-05T13:30:24Z</time>
      </trkpt>
      <trkpt lat="46.55897" lon="6.25235">
        <ele>1361.844971</ele>
        <time>2014-06-05T13:30:40Z</time>
      </trkpt>
      <trkpt lat="46.55902" lon="6.25269">
        <ele>1363.286865</ele>
        <time>2014-06-05T13:30:54Z</time>
      </trkpt>
      <trkpt lat="46.55913" lon="6.25306">
        <ele>1366.170654</ele>
        <time>2014-06-05T13:31:10Z</time>
      </trkpt>
      <trkpt lat="46.55915" lon="6.25311">
        <ele>1366.170654</ele>
        <time>2014-06-05T13:31:12Z</time>
      </trkpt>
      <trkpt lat="46.55918" lon="6.25321">
        <ele>1367.13208</ele>
        <time>2014-06-05T13:31:16Z</time>
      </trkpt>
      <trkpt lat="46.55933" lon="6.25361">
        <ele>1370.977295</ele>
        <time>2014-06-05T13:31:33Z</time>
      </trkpt>
      <trkpt lat="46.55949" lon="6.25399">
        <ele>1375.303223</ele>
        <time>2014-06-05T13:31:49Z</time>
      </trkpt>
      <trkpt lat="46.55963" lon="6.25428">
        <ele>1379.62915</ele>
        <time>2014-06-05T13:32:02Z</time>
      </trkpt>
      <trkpt lat="46.55981" lon="6.25458">
        <ele>1383.955078</ele>
        <time>2014-06-05T13:32:17Z</time>
      </trkpt>
      <trkpt lat="46.55997" lon="6.2549">
        <ele>1385.396973</ele>
        <time>2014-06-05T13:32:32Z</time>
      </trkpt>
      <trkpt lat="46.55991" lon="6.25523">
        <ele>1385.877686</ele>
        <time>2014-06-05T13:32:46Z</time>
      </trkpt>
      <trkpt lat="46.5597" lon="6.25517">
        <ele>1384.916504</ele>
        <time>2014-06-05T13:32:56Z</time>
      </trkpt>
      <trkpt lat="46.55948" lon="6.25486">
        <ele>1386.838867</ele>
        <time>2014-06-05T13:33:09Z</time>
      </trkpt>
      <trkpt lat="46.55919" lon="6.25454">
        <ele>1389.242432</ele>
        <time>2014-06-05T13:33:24Z</time>
      </trkpt>
      <trkpt lat="46.55888" lon="6.25431">
        <ele>1391.645752</ele>
        <time>2014-06-05T13:33:38Z</time>
      </trkpt>
      <trkpt lat="46.55857" lon="6.25404">
        <ele>1394.529541</ele>
        <time>2014-06-05T13:33:53Z</time>
      </trkpt>
      <trkpt lat="46.55832" lon="6.25379">
        <ele>1396.932861</ele>
        <time>2014-06-05T13:34:06Z</time>
      </trkpt>
      <trkpt lat="46.55802" lon="6.2535">
        <ele>1397.894287</ele>
        <time>2014-06-05T13:34:22Z</time>
      </trkpt>
      <trkpt lat="46.55775" lon="6.25326">
        <ele>1400.778076</ele>
        <time>2014-06-05T13:34:36Z</time>
      </trkpt>
      <trkpt lat="46.55748" lon="6.253">
        <ele>1401.258789</ele>
        <time>2014-06-05T13:34:50Z</time>
      </trkpt>
      <trkpt lat="46.55722" lon="6.25277">
        <ele>1403.662109</ele>
        <time>2014-06-05T13:35:05Z</time>
      </trkpt>
      <trkpt lat="46.55694" lon="6.25268">
        <ele>1405.104248</ele>
        <time>2014-06-05T13:35:19Z</time>
      </trkpt>
      <trkpt lat="46.55661" lon="6.25261">
        <ele>1405.104248</ele>
        <time>2014-06-05T13:35:33Z</time>
      </trkpt>
      <trkpt lat="46.55626" lon="6.25246">
        <ele>1407.026855</ele>
        <time>2014-06-05T13:35:50Z</time>
      </trkpt>
      <trkpt lat="46.55597" lon="6.25233">
        <ele>1409.430176</ele>
        <time>2014-06-05T13:36:05Z</time>
      </trkpt>
      <trkpt lat="46.55574" lon="6.25217">
        <ele>1416.15918</ele>
        <time>2014-06-05T13:36:20Z</time>
      </trkpt>
      <trkpt lat="46.55549" lon="6.25198">
        <ele>1422.407959</ele>
        <time>2014-06-05T13:36:36Z</time>
      </trkpt>
      <trkpt lat="46.55525" lon="6.25173">
        <ele>1426.253174</ele>
        <time>2014-06-05T13:36:53Z</time>
      </trkpt>
      <trkpt lat="46.55501" lon="6.25147">
        <ele>1426.733887</ele>
        <time>2014-06-05T13:37:09Z</time>
      </trkpt>
      <trkpt lat="46.55474" lon="6.25114">
        <ele>1428.656494</ele>
        <time>2014-06-05T13:37:29Z</time>
      </trkpt>
      <trkpt lat="46.55447" lon="6.25086">
        <ele>1433.943604</ele>
        <time>2014-06-05T13:37:47Z</time>
      </trkpt>
      <trkpt lat="46.55427" lon="6.25068">
        <ele>1436.347168</ele>
        <time>2014-06-05T13:38:00Z</time>
      </trkpt>
      <trkpt lat="46.55405" lon="6.25053">
        <ele>1438.750488</ele>
        <time>2014-06-05T13:38:13Z</time>
      </trkpt>
      <trkpt lat="46.55376" lon="6.25035">
        <ele>1442.11499</ele>
        <time>2014-06-05T13:38:29Z</time>
      </trkpt>
      <trkpt lat="46.55356" lon="6.25022">
        <ele>1443.556885</ele>
        <time>2014-06-05T13:38:43Z</time>
      </trkpt>
      <trkpt lat="46.55354" lon="6.25024">
        <ele>1442.595703</ele>
        <time>2014-06-05T13:39:18Z</time>
      </trkpt>
      <trkpt lat="46.55353" lon="6.25025">
        <ele>1442.595703</ele>
        <time>2014-06-05T13:40:02Z</time>
      </trkpt>
      <trkpt lat="46.55309" lon="6.25023">
        <ele>1443.556885</ele>
        <time>2014-06-05T13:40:17Z</time>
      </trkpt>
      <trkpt lat="46.55271" lon="6.25039">
        <ele>1441.153564</ele>
        <time>2014-06-05T13:40:30Z</time>
      </trkpt>
      <trkpt lat="46.5525" lon="6.25071">
        <ele>1440.672852</ele>
        <time>2014-06-05T13:40:39Z</time>
      </trkpt>
      <trkpt lat="46.55255" lon="6.25078">
        <ele>1440.672852</ele>
        <time>2014-06-05T13:40:44Z</time>
      </trkpt>
      <trkpt lat="46.55267" lon="6.25052">
        <ele>1442.11499</ele>
        <time>2014-06-05T13:40:52Z</time>
      </trkpt>
      <trkpt lat="46.55274" lon="6.25052">
        <ele>1444.518066</ele>
        <time>2014-06-05T13:41:02Z</time>
      </trkpt>
      <trkpt lat="46.55274" lon="6.25052">
        <ele>1444.998779</ele>
        <time>2014-06-05T13:41:03Z</time>
      </trkpt>
      <trkpt lat="46.55257" lon="6.25058">
        <ele>1444.998779</ele>
        <time>2014-06-05T13:41:11Z</time>
      </trkpt>
      <trkpt lat="46.5525" lon="6.25073">
        <ele>1445.960205</ele>
        <time>2014-06-05T13:41:14Z</time>
      </trkpt>
      <trkpt lat="46.55241" lon="6.25152">
        <ele>1443.076172</ele>
        <time>2014-06-05T13:41:26Z</time>
      </trkpt>
      <trkpt lat="46.55241" lon="6.25155">
        <ele>1443.076172</ele>
        <time>2014-06-05T13:41:27Z</time>
      </trkpt>
      <trkpt lat="46.55247" lon="6.25149">
        <ele>1440.192383</ele>
        <time>2014-06-05T13:41:33Z</time>
      </trkpt>
      <trkpt lat="46.55256" lon="6.25083">
        <ele>1438.269775</ele>
        <time>2014-06-05T13:41:51Z</time>
      </trkpt>
      <trkpt lat="46.55271" lon="6.25046">
        <ele>1438.750488</ele>
        <time>2014-06-05T13:42:04Z</time>
      </trkpt>
      <trkpt lat="46.55304" lon="6.2503">
        <ele>1444.998779</ele>
        <time>2014-06-05T13:42:17Z</time>
      </trkpt>
      <trkpt lat="46.55337" lon="6.25028">
        <ele>1445.960205</ele>
        <time>2014-06-05T13:42:26Z</time>
      </trkpt>
      <trkpt lat="46.55402" lon="6.25057">
        <ele>1438.750488</ele>
        <time>2014-06-05T13:42:38Z</time>
      </trkpt>
      <trkpt lat="46.55478" lon="6.25127">
        <ele>1429.136963</ele>
        <time>2014-06-05T13:42:50Z</time>
      </trkpt>
      <trkpt lat="46.55567" lon="6.25216">
        <ele>1419.523926</ele>
        <time>2014-06-05T13:43:02Z</time>
      </trkpt>
      <trkpt lat="46.55668" lon="6.25266">
        <ele>1411.352783</ele>
        <time>2014-06-05T13:43:12Z</time>
      </trkpt>
      <trkpt lat="46.55718" lon="6.2528">
        <ele>1408.46875</ele>
        <time>2014-06-05T13:43:17Z</time>
      </trkpt>
      <trkpt lat="46.55805" lon="6.25362">
        <ele>1397.413574</ele>
        <time>2014-06-05T13:43:27Z</time>
      </trkpt>
      <trkpt lat="46.55918" lon="6.25465">
        <ele>1384.435791</ele>
        <time>2014-06-05T13:43:39Z</time>
      </trkpt>
      <trkpt lat="46.55957" lon="6.25503">
        <ele>1381.071289</ele>
        <time>2014-06-05T13:43:43Z</time>
      </trkpt>
      <trkpt lat="46.55995" lon="6.25536">
        <ele>1379.62915</ele>
        <time>2014-06-05T13:43:49Z</time>
      </trkpt>
      <trkpt lat="46.56001" lon="6.25489">
        <ele>1378.187256</ele>
        <time>2014-06-05T13:43:54Z</time>
      </trkpt>
      <trkpt lat="46.55996" lon="6.25478">
        <ele>1378.187256</ele>
        <time>2014-06-05T13:43:55Z</time>
      </trkpt>
      <trkpt lat="46.55937" lon="6.25354">
        <ele>1371.457764</ele>
        <time>2014-06-05T13:44:05Z</time>
      </trkpt>
      <trkpt lat="46.55902" lon="6.25248">
        <ele>1362.325439</ele>
        <time>2014-06-05T13:44:12Z</time>
      </trkpt>
      <trkpt lat="46.55904" lon="6.25175">
        <ele>1358.960938</ele>
        <time>2014-06-05T13:44:16Z</time>
      </trkpt>
      <trkpt lat="46.55955" lon="6.24895">
        <ele>1339.734375</ele>
        <time>2014-06-05T13:44:32Z</time>
      </trkpt>
      <trkpt lat="46.56009" lon="6.24813">
        <ele>1337.811768</ele>
        <time>2014-06-05T13:44:39Z</time>
      </trkpt>
      <trkpt lat="46.56042" lon="6.24806">
        <ele>1337.331055</ele>
        <time>2014-06-05T13:44:42Z</time>
      </trkpt>
      <trkpt lat="46.56146" lon="6.24799">
        <ele>1333.966553</ele>
        <time>2014-06-05T13:44:53Z</time>
      </trkpt>
      <trkpt lat="46.56243" lon="6.24758">
        <ele>1336.369873</ele>
        <time>2014-06-05T13:45:07Z</time>
      </trkpt>
      <trkpt lat="46.56264" lon="6.24743">
        <ele>1337.331055</ele>
        <time>2014-06-05T13:45:11Z</time>
      </trkpt>
      <trkpt lat="46.56302" lon="6.24662">
        <ele>1335.88916</ele>
        <time>2014-06-05T13:45:24Z</time>
      </trkpt>
      <trkpt lat="46.56337" lon="6.24529">
        <ele>1334.927979</ele>
        <time>2014-06-05T13:45:43Z</time>
      </trkpt>
      <trkpt lat="46.56345" lon="6.24498">
        <ele>1333.966553</ele>
        <time>2014-06-05T13:45:47Z</time>
      </trkpt>
      <trkpt lat="46.56381" lon="6.24356">
        <ele>1330.602051</ele>
        <time>2014-06-05T13:46:01Z</time>
      </trkpt>
      <trkpt lat="46.56425" lon="6.24176">
        <ele>1329.640625</ele>
        <time>2014-06-05T13:46:18Z</time>
      </trkpt>
      <trkpt lat="46.56457" lon="6.24052">
        <ele>1331.082764</ele>
        <time>2014-06-05T13:46:32Z</time>
      </trkpt>
      <trkpt lat="46.56478" lon="6.2397">
        <ele>1333.005127</ele>
        <time>2014-06-05T13:46:45Z</time>
      </trkpt>
      <trkpt lat="46.56495" lon="6.23906">
        <ele>1336.369873</ele>
        <time>2014-06-05T13:47:01Z</time>
      </trkpt>
      <trkpt lat="46.56506" lon="6.23859">
        <ele>1340.695801</ele>
        <time>2014-06-05T13:47:15Z</time>
      </trkpt>
      <trkpt lat="46.56521" lon="6.238">
        <ele>1344.060547</ele>
        <time>2014-06-05T13:47:32Z</time>
      </trkpt>
      <trkpt lat="46.56534" lon="6.23748">
        <ele>1344.541016</ele>
        <time>2014-06-05T13:47:47Z</time>
      </trkpt>
      <trkpt lat="46.56556" lon="6.23661">
        <ele>1345.502441</ele>
        <time>2014-06-05T13:48:08Z</time>
      </trkpt>
      <trkpt lat="46.56573" lon="6.2359">
        <ele>1344.060547</ele>
        <time>2014-06-05T13:48:22Z</time>
      </trkpt>
      <trkpt lat="46.56596" lon="6.23495">
        <ele>1348.38623</ele>
        <time>2014-06-05T13:48:39Z</time>
      </trkpt>
      <trkpt lat="46.56617" lon="6.23405">
        <ele>1351.270264</ele>
        <time>2014-06-05T13:48:54Z</time>
      </trkpt>
      <trkpt lat="46.56639" lon="6.233">
        <ele>1347.425049</ele>
        <time>2014-06-05T13:49:09Z</time>
      </trkpt>
      <trkpt lat="46.56657" lon="6.23177">
        <ele>1342.618652</ele>
        <time>2014-06-05T13:49:24Z</time>
      </trkpt>
      <trkpt lat="46.56682" lon="6.23017">
        <ele>1335.408447</ele>
        <time>2014-06-05T13:49:40Z</time>
      </trkpt>
      <trkpt lat="46.56727" lon="6.22895">
        <ele>1329.640625</ele>
        <time>2014-06-05T13:49:50Z</time>
      </trkpt>
      <trkpt lat="46.56813" lon="6.22677">
        <ele>1318.585449</ele>
        <time>2014-06-05T13:50:05Z</time>
      </trkpt>
      <trkpt lat="46.56845" lon="6.22493">
        <ele>1308.972412</ele>
        <time>2014-06-05T13:50:16Z</time>
      </trkpt>
      <trkpt lat="46.5687" lon="6.22452">
        <ele>1309.453125</ele>
        <time>2014-06-05T13:50:20Z</time>
      </trkpt>
      <trkpt lat="46.57002" lon="6.22376">
        <ele>1304.165771</ele>
        <time>2014-06-05T13:50:36Z</time>
      </trkpt>
      <trkpt lat="46.57076" lon="6.2233">
        <ele>1302.24292</ele>
        <time>2014-06-05T13:50:45Z</time>
      </trkpt>
      <trkpt lat="46.57103" lon="6.22297">
        <ele>1300.320557</ele>
        <time>2014-06-05T13:50:49Z</time>
      </trkpt>
      <trkpt lat="46.57124" lon="6.22252">
        <ele>1296.955811</ele>
        <time>2014-06-05T13:50:53Z</time>
      </trkpt>
      <trkpt lat="46.57137" lon="6.22204">
        <ele>1295.033203</ele>
        <time>2014-06-05T13:50:57Z</time>
      </trkpt>
      <trkpt lat="46.57128" lon="6.2208">
        <ele>1283.978027</ele>
        <time>2014-06-05T13:51:06Z</time>
      </trkpt>
      <trkpt lat="46.57105" lon="6.21973">
        <ele>1273.884033</ele>
        <time>2014-06-05T13:51:14Z</time>
      </trkpt>
      <trkpt lat="46.57101" lon="6.21909">
        <ele>1270.519531</ele>
        <time>2014-06-05T13:51:19Z</time>
      </trkpt>
      <trkpt lat="46.57096" lon="6.21869">
        <ele>1266.193604</ele>
        <time>2014-06-05T13:51:22Z</time>
      </trkpt>
      <trkpt lat="46.57066" lon="6.21733">
        <ele>1251.293213</ele>
        <time>2014-06-05T13:51:33Z</time>
      </trkpt>
      <trkpt lat="46.57066" lon="6.21721">
        <ele>1249.851318</ele>
        <time>2014-06-05T13:51:34Z</time>
      </trkpt>
      <trkpt lat="46.57074" lon="6.21674">
        <ele>1246.967285</ele>
        <time>2014-06-05T13:51:38Z</time>
      </trkpt>
      <trkpt lat="46.57085" lon="6.21643">
        <ele>1243.121826</ele>
        <time>2014-06-05T13:51:41Z</time>
      </trkpt>
      <trkpt lat="46.57092" lon="6.21596">
        <ele>1236.873291</ele>
        <time>2014-06-05T13:51:45Z</time>
      </trkpt>
      <trkpt lat="46.57119" lon="6.21546">
        <ele>1232.066895</ele>
        <time>2014-06-05T13:51:53Z</time>
      </trkpt>
      <trkpt lat="46.57125" lon="6.21551">
        <ele>1232.066895</ele>
        <time>2014-06-05T13:51:54Z</time>
      </trkpt>
      <trkpt lat="46.57142" lon="6.2157">
        <ele>1230.625</ele>
        <time>2014-06-05T13:51:57Z</time>
      </trkpt>
      <trkpt lat="46.57229" lon="6.21605">
        <ele>1224.856934</ele>
        <time>2014-06-05T13:52:08Z</time>
      </trkpt>
      <trkpt lat="46.57246" lon="6.21605">
        <ele>1224.376221</ele>
        <time>2014-06-05T13:52:10Z</time>
      </trkpt>
      <trkpt lat="46.57278" lon="6.2156">
        <ele>1219.089111</ele>
        <time>2014-06-05T13:52:17Z</time>
      </trkpt>
      <trkpt lat="46.57276" lon="6.21549">
        <ele>1218.608398</ele>
        <time>2014-06-05T13:52:18Z</time>
      </trkpt>
      <trkpt lat="46.5727" lon="6.21515">
        <ele>1216.685791</ele>
        <time>2014-06-05T13:52:21Z</time>
      </trkpt>
      <trkpt lat="46.5729" lon="6.21483">
        <ele>1214.282471</ele>
        <time>2014-06-05T13:52:27Z</time>
      </trkpt>
      <trkpt lat="46.57313" lon="6.21494">
        <ele>1213.321289</ele>
        <time>2014-06-05T13:52:31Z</time>
      </trkpt>
      <trkpt lat="46.57343" lon="6.21446">
        <ele>1209.47583</ele>
        <time>2014-06-05T13:52:38Z</time>
      </trkpt>
      <trkpt lat="46.57344" lon="6.21381">
        <ele>1202.746582</ele>
        <time>2014-06-05T13:52:44Z</time>
      </trkpt>
      <trkpt lat="46.57341" lon="6.21332">
        <ele>1199.38208</ele>
        <time>2014-06-05T13:52:54Z</time>
      </trkpt>
      <trkpt lat="46.5734" lon="6.21336">
        <ele>1196.97876</ele>
        <time>2014-06-05T13:53:44Z</time>
      </trkpt>
      <trkpt lat="46.57336" lon="6.21323">
        <ele>1195.536621</ele>
        <time>2014-06-05T13:53:48Z</time>
      </trkpt>
      <trkpt lat="46.57333" lon="6.21273">
        <ele>1190.249512</ele>
        <time>2014-06-05T13:53:58Z</time>
      </trkpt>
      <trkpt lat="46.57332" lon="6.21271">
        <ele>1187.846191</ele>
        <time>2014-06-05T13:54:53Z</time>
      </trkpt>
      <trkpt lat="46.57336" lon="6.2127">
        <ele>1188.807617</ele>
        <time>2014-06-05T13:54:57Z</time>
      </trkpt>
      <trkpt lat="46.57341" lon="6.21254">
        <ele>1188.807617</ele>
        <time>2014-06-05T13:55:02Z</time>
      </trkpt>
      <trkpt lat="46.57345" lon="6.21243">
        <ele>1188.326904</ele>
        <time>2014-06-05T13:55:04Z</time>
      </trkpt>
      <trkpt lat="46.57348" lon="6.21222">
        <ele>1186.404297</ele>
        <time>2014-06-05T13:55:07Z</time>
      </trkpt>
      <trkpt lat="46.57351" lon="6.21198">
        <ele>1184.481689</ele>
        <time>2014-06-05T13:55:10Z</time>
      </trkpt>
      <trkpt lat="46.57344" lon="6.21098">
        <ele>1176.310303</ele>
        <time>2014-06-05T13:55:22Z</time>
      </trkpt>
      <trkpt lat="46.57335" lon="6.20974">
        <ele>1168.13916</ele>
        <time>2014-06-05T13:55:36Z</time>
      </trkpt>
      <trkpt lat="46.57324" lon="6.2088">
        <ele>1161.890625</ele>
        <time>2014-06-05T13:55:45Z</time>
      </trkpt>
      <trkpt lat="46.57321" lon="6.2087">
        <ele>1161.409912</ele>
        <time>2014-06-05T13:55:47Z</time>
      </trkpt>
      <trkpt lat="46.57321" lon="6.2086">
        <ele>1161.890625</ele>
        <time>2014-06-05T13:55:57Z</time>
      </trkpt>
      <trkpt lat="46.57321" lon="6.2086">
        <ele>1162.371094</ele>
        <time>2014-06-05T13:57:14Z</time>
      </trkpt>
      <trkpt lat="46.57328" lon="6.20856">
        <ele>1162.371094</ele>
        <time>2014-06-05T13:57:17Z</time>
      </trkpt>
      <trkpt lat="46.5735" lon="6.20848">
        <ele>1161.890625</ele>
        <time>2014-06-05T13:57:22Z</time>
      </trkpt>
      <trkpt lat="46.57438" lon="6.20878">
        <ele>1153.23877</ele>
        <time>2014-06-05T13:57:35Z</time>
      </trkpt>
      <trkpt lat="46.5747" lon="6.20852">
        <ele>1147.951416</ele>
        <time>2014-06-05T13:57:41Z</time>
      </trkpt>
      <trkpt lat="46.57471" lon="6.20839">
        <ele>1146.509521</ele>
        <time>2014-06-05T13:57:42Z</time>
      </trkpt>
      <trkpt lat="46.5747" lon="6.20798">
        <ele>1142.183594</ele>
        <time>2014-06-05T13:57:45Z</time>
      </trkpt>
      <trkpt lat="46.57499" lon="6.20754">
        <ele>1138.819092</ele>
        <time>2014-06-05T13:57:51Z</time>
      </trkpt>
      <trkpt lat="46.57516" lon="6.20755">
        <ele>1137.376953</ele>
        <time>2014-06-05T13:57:53Z</time>
      </trkpt>
      <trkpt lat="46.57641" lon="6.20774">
        <ele>1123.437988</ele>
        <time>2014-06-05T13:58:07Z</time>
      </trkpt>
      <trkpt lat="46.57752" lon="6.20818">
        <ele>1110.459961</ele>
        <time>2014-06-05T13:58:19Z</time>
      </trkpt>
      <trkpt lat="46.57761" lon="6.20822">
        <ele>1109.498779</ele>
        <time>2014-06-05T13:58:20Z</time>
      </trkpt>
      <trkpt lat="46.57857" lon="6.20917">
        <ele>1096.520996</ele>
        <time>2014-06-05T13:58:32Z</time>
      </trkpt>
      <trkpt lat="46.57906" lon="6.20972">
        <ele>1089.311035</ele>
        <time>2014-06-05T13:58:39Z</time>
      </trkpt>
      <trkpt lat="46.57939" lon="6.20956">
        <ele>1085.46582</ele>
        <time>2014-06-05T13:58:45Z</time>
      </trkpt>
      <trkpt lat="46.57937" lon="6.20934">
        <ele>1084.504639</ele>
        <time>2014-06-05T13:58:47Z</time>
      </trkpt>
      <trkpt lat="46.57884" lon="6.20792">
        <ele>1073.449463</ele>
        <time>2014-06-05T13:59:00Z</time>
      </trkpt>
      <trkpt lat="46.57821" lon="6.20635">
        <ele>1064.797363</ele>
        <time>2014-06-05T13:59:13Z</time>
      </trkpt>
      <trkpt lat="46.57799" lon="6.20595">
        <ele>1061.432861</ele>
        <time>2014-06-05T13:59:17Z</time>
      </trkpt>
      <trkpt lat="46.5779" lon="6.20517">
        <ele>1059.029541</ele>
        <time>2014-06-05T13:59:24Z</time>
      </trkpt>
      <trkpt lat="46.57818" lon="6.20524">
        <ele>1056.145508</ele>
        <time>2014-06-05T13:59:28Z</time>
      </trkpt>
      <trkpt lat="46.5788" lon="6.20599">
        <ele>1051.81958</ele>
        <time>2014-06-05T13:59:38Z</time>
      </trkpt>
      <trkpt lat="46.57904" lon="6.2062">
        <ele>1050.377686</ele>
        <time>2014-06-05T13:59:42Z</time>
      </trkpt>
      <trkpt lat="46.57933" lon="6.20645">
        <ele>1048.454834</ele>
        <time>2014-06-05T13:59:49Z</time>
      </trkpt>
      <trkpt lat="46.5794" lon="6.20667">
        <ele>1048.454834</ele>
        <time>2014-06-05T13:59:52Z</time>
      </trkpt>
      <trkpt lat="46.57996" lon="6.20773">
        <ele>1044.12915</ele>
        <time>2014-06-05T14:00:06Z</time>
      </trkpt>
      <trkpt lat="46.58058" lon="6.20907">
        <ele>1039.803223</ele>
        <time>2014-06-05T14:00:22Z</time>
      </trkpt>
      <trkpt lat="46.5811" lon="6.2102">
        <ele>1036.438721</ele>
        <time>2014-06-05T14:00:35Z</time>
      </trkpt>
      <trkpt lat="46.58119" lon="6.21035">
        <ele>1035.957764</ele>
        <time>2014-06-05T14:00:37Z</time>
      </trkpt>
      <trkpt lat="46.58156" lon="6.21084">
        <ele>1035.477051</ele>
        <time>2014-06-05T14:00:44Z</time>
      </trkpt>
      <trkpt lat="46.58169" lon="6.21123">
        <ele>1031.631836</ele>
        <time>2014-06-05T14:00:48Z</time>
      </trkpt>
      <trkpt lat="46.58178" lon="6.21162">
        <ele>1030.189941</ele>
        <time>2014-06-05T14:00:52Z</time>
      </trkpt>
      <trkpt lat="46.58199" lon="6.2119">
        <ele>1028.267334</ele>
        <time>2014-06-05T14:00:56Z</time>
      </trkpt>
      <trkpt lat="46.58266" lon="6.2124">
        <ele>1023.460938</ele>
        <time>2014-06-05T14:01:09Z</time>
      </trkpt>
      <trkpt lat="46.58289" lon="6.21259">
        <ele>1021.538086</ele>
        <time>2014-06-05T14:01:15Z</time>
      </trkpt>
      <trkpt lat="46.58299" lon="6.21275">
        <ele>1020.576904</ele>
        <time>2014-06-05T14:01:18Z</time>
      </trkpt>
      <trkpt lat="46.58366" lon="6.21381">
        <ele>1016.250732</ele>
        <time>2014-06-05T14:01:34Z</time>
      </trkpt>
      <trkpt lat="46.58395" lon="6.2143">
        <ele>1016.250732</ele>
        <time>2014-06-05T14:01:41Z</time>
      </trkpt>
      <trkpt lat="46.58411" lon="6.21453">
        <ele>1015.770264</ele>
        <time>2014-06-05T14:01:45Z</time>
      </trkpt>
      <trkpt lat="46.58418" lon="6.21463">
        <ele>1015.770264</ele>
        <time>2014-06-05T14:01:47Z</time>
      </trkpt>
      <trkpt lat="46.58439" lon="6.21461">
        <ele>1014.808838</ele>
        <time>2014-06-05T14:01:53Z</time>
      </trkpt>
      <trkpt lat="46.58456" lon="6.21325">
        <ele>1013.847412</ele>
        <time>2014-06-05T14:02:11Z</time>
      </trkpt>
      <trkpt lat="46.58469" lon="6.21314">
        <ele>1016.731445</ele>
        <time>2014-06-05T14:02:16Z</time>
      </trkpt>
      <trkpt lat="46.58546" lon="6.21345">
        <ele>1017.212158</ele>
        <time>2014-06-05T14:02:31Z</time>
      </trkpt>
      <trkpt lat="46.58631" lon="6.21375">
        <ele>1018.17334</ele>
        <time>2014-06-05T14:02:48Z</time>
      </trkpt>
      <trkpt lat="46.58728" lon="6.21406">
        <ele>1016.250732</ele>
        <time>2014-06-05T14:03:06Z</time>
      </trkpt>
      <trkpt lat="46.58827" lon="6.21441">
        <ele>1015.289551</ele>
        <time>2014-06-05T14:03:23Z</time>
      </trkpt>
      <trkpt lat="46.5892" lon="6.21445">
        <ele>1013.366943</ele>
        <time>2014-06-05T14:03:38Z</time>
      </trkpt>
      <trkpt lat="46.59006" lon="6.2139">
        <ele>1013.366943</ele>
        <time>2014-06-05T14:03:53Z</time>
      </trkpt>
      <trkpt lat="46.59068" lon="6.2137">
        <ele>1016.250732</ele>
        <time>2014-06-05T14:04:06Z</time>
      </trkpt>
      <trkpt lat="46.59139" lon="6.21371">
        <ele>1018.17334</ele>
        <time>2014-06-05T14:04:23Z</time>
      </trkpt>
      <trkpt lat="46.59209" lon="6.21381">
        <ele>1020.096191</ele>
        <time>2014-06-05T14:04:42Z</time>
      </trkpt>
      <trkpt lat="46.59256" lon="6.21389">
        <ele>1021.538086</ele>
        <time>2014-06-05T14:04:55Z</time>
      </trkpt>
      <trkpt lat="46.59328" lon="6.21399">
        <ele>1021.538086</ele>
        <time>2014-06-05T14:05:11Z</time>
      </trkpt>
      <trkpt lat="46.59338" lon="6.21401">
        <ele>1021.057617</ele>
        <time>2014-06-05T14:05:13Z</time>
      </trkpt>
      <trkpt lat="46.59405" lon="6.2143">
        <ele>1018.654053</ele>
        <time>2014-06-05T14:05:26Z</time>
      </trkpt>
      <trkpt lat="46.59491" lon="6.21513">
        <ele>1019.134766</ele>
        <time>2014-06-05T14:05:45Z</time>
      </trkpt>
      <trkpt lat="46.59556" lon="6.21593">
        <ele>1017.692627</ele>
        <time>2014-06-05T14:06:00Z</time>
      </trkpt>
      <trkpt lat="46.59623" lon="6.21652">
        <ele>1016.731445</ele>
        <time>2014-06-05T14:06:14Z</time>
      </trkpt>
      <trkpt lat="46.59655" lon="6.21671">
        <ele>1016.731445</ele>
        <time>2014-06-05T14:06:20Z</time>
      </trkpt>
      <trkpt lat="46.59721" lon="6.2173">
        <ele>1017.692627</ele>
        <time>2014-06-05T14:06:34Z</time>
      </trkpt>
      <trkpt lat="46.59799" lon="6.21795">
        <ele>1014.328125</ele>
        <time>2014-06-05T14:06:49Z</time>
      </trkpt>
      <trkpt lat="46.5982" lon="6.21813">
        <ele>1014.808838</ele>
        <time>2014-06-05T14:06:53Z</time>
      </trkpt>
      <trkpt lat="46.59889" lon="6.21906">
        <ele>1013.847412</ele>
        <time>2014-06-05T14:07:08Z</time>
      </trkpt>
      <trkpt lat="46.59952" lon="6.22008">
        <ele>1013.847412</ele>
        <time>2014-06-05T14:07:23Z</time>
      </trkpt>
      <trkpt lat="46.59986" lon="6.22059">
        <ele>1012.88623</ele>
        <time>2014-06-05T14:07:31Z</time>
      </trkpt>
      <trkpt lat="46.60062" lon="6.22151">
        <ele>1013.847412</ele>
        <time>2014-06-05T14:07:49Z</time>
      </trkpt>
      <trkpt lat="46.60138" lon="6.22235">
        <ele>1012.405518</ele>
        <time>2014-06-05T14:08:07Z</time>
      </trkpt>
      <trkpt lat="46.60184" lon="6.22289">
        <ele>1010.48291</ele>
        <time>2014-06-05T14:08:18Z</time>
      </trkpt>
      <trkpt lat="46.60247" lon="6.22368">
        <ele>1011.925049</ele>
        <time>2014-06-05T14:08:34Z</time>
      </trkpt>
      <trkpt lat="46.60327" lon="6.22459">
        <ele>1008.560303</ele>
        <time>2014-06-05T14:08:49Z</time>
      </trkpt>
      <trkpt lat="46.60375" lon="6.22583">
        <ele>1006.637695</ele>
        <time>2014-06-05T14:09:02Z</time>
      </trkpt>
      <trkpt lat="46.6039" lon="6.22638">
        <ele>1009.521729</ele>
        <time>2014-06-05T14:09:08Z</time>
      </trkpt>
      <trkpt lat="46.60368" lon="6.22684">
        <ele>1011.925049</ele>
        <time>2014-06-05T14:09:15Z</time>
      </trkpt>
      <trkpt lat="46.60362" lon="6.22685">
        <ele>1010.002197</ele>
        <time>2014-06-05T14:09:16Z</time>
      </trkpt>
      <trkpt lat="46.60325" lon="6.22697">
        <ele>1009.041016</ele>
        <time>2014-06-05T14:09:23Z</time>
      </trkpt>
      <trkpt lat="46.60326" lon="6.22717">
        <ele>1008.079834</ele>
        <time>2014-06-05T14:09:27Z</time>
      </trkpt>
      <trkpt lat="46.60332" lon="6.22736">
        <ele>1007.118408</ele>
        <time>2014-06-05T14:09:30Z</time>
      </trkpt>
    </trkseg>
  </trk>
</gpx>